Wetterdaten: Samstag, 04.08.2018
Datum Zeit Temp. Aussen Temp. o. S. +5cm Feuchte Auss Luftdruck Regen Sonnenschein Regendauer Solar Windben Empfang
04.08.2018 00:00 27,2 C 25,6 C 25,0 C 51 % 1016,4 hPa 0,0 l/m 0 min 0 min 0 W/m 4,5 km/h (1 Bft) 93,62 %
04.08.2018 00:02 27,1 C 25,6 C 25,0 C 52 % 1016,4 hPa 0,0 l/m 0 min 0 min 0 W/m 2,3 km/h (1 Bft) 93,75 %
04.08.2018 00:04 27,1 C 25,6 C 25,0 C 52 % 1016,5 hPa 0,0 l/m 0 min 0 min 0 W/m 2,3 km/h (1 Bft) 93,62 %
04.08.2018 00:08 27,1 C 25,6 C 25,0 C 52 % 1016,5 hPa 0,0 l/m 0 min 0 min 0 W/m 2,3 km/h (1 Bft) 95,24 %
04.08.2018 00:10 27,0 C 25,6 C 25,0 C 52 % 1016,4 hPa 0,0 l/m 0 min 0 min 0 W/m 2,3 km/h (1 Bft) 93,62 %
04.08.2018 00:12 27,0 C 25,6 C 24,4 C 53 % 1016,4 hPa 0,0 l/m 0 min 0 min 0 W/m 4,5 km/h (1 Bft) 93,62 %
04.08.2018 00:14 27,0 C 25,0 C 24,4 C 53 % 1016,4 hPa 0,0 l/m 0 min 0 min 0 W/m 4,5 km/h (1 Bft) 95,74 %
04.08.2018 00:16 26,9 C 25,6 C 24,4 C 52 % 1016,4 hPa 0,0 l/m 0 min 0 min 0 W/m 4,5 km/h (1 Bft) 95,65 %
04.08.2018 00:18 26,9 C 25,0 C 24,4 C 53 % 1016,4 hPa 0,0 l/m 0 min 0 min 0 W/m 2,3 km/h (1 Bft) 95,74 %
04.08.2018 00:20 26,9 C 25,0 C 24,4 C 53 % 1016,4 hPa 0,0 l/m 0 min 0 min 0 W/m 2,3 km/h (1 Bft) 95,74 %
04.08.2018 00:22 26,8 C 25,0 C 24,4 C 54 % 1016,4 hPa 0,0 l/m 0 min 0 min 0 W/m 4,5 km/h (1 Bft) 95,74 %
04.08.2018 00:24 26,8 C 25,0 C 24,4 C 53 % 1016,4 hPa 0,0 l/m 0 min 0 min 0 W/m 4,5 km/h (1 Bft) 93,62 %
04.08.2018 00:26 26,8 C 25,0 C 24,4 C 53 % 1016,3 hPa 0,0 l/m 0 min 0 min 0 W/m 2,3 km/h (1 Bft) 95,74 %
04.08.2018 00:28 26,8 C 25,0 C 24,4 C 53 % 1016,4 hPa 0,0 l/m 0 min 0 min 0 W/m 2,3 km/h (1 Bft) 93,48 %
04.08.2018 00:30 26,7 C 25,0 C 24,4 C 54 % 1016,4 hPa 0,0 l/m 0 min 0 min 0 W/m 2,3 km/h (1 Bft) 93,62 %
04.08.2018 00:32 26,7 C 25,0 C 24,4 C 54 % 1016,4 hPa 0,0 l/m 0 min 0 min 0 W/m 2,3 km/h (1 Bft) 100,00 %
04.08.2018 00:34 26,7 C 25,0 C 24,4 C 55 % 1016,4 hPa 0,0 l/m 0 min 0 min 0 W/m 6,8 km/h (2 Bft) 96,61 %
04.08.2018 00:36 26,7 C 25,0 C 24,4 C 54 % 1016,4 hPa 0,0 l/m 0 min 0 min 0 W/m 2,3 km/h (1 Bft) 97,14 %
04.08.2018 00:38 26,6 C 25,0 C 24,4 C 55 % 1016,4 hPa 0,0 l/m 0 min 0 min 0 W/m 2,3 km/h (1 Bft) 96,61 %
04.08.2018 00:40 26,6 C 25,0 C 24,4 C 55 % 1016,4 hPa 0,0 l/m 0 min 0 min 0 W/m 2,3 km/h (1 Bft) 97,14 %
04.08.2018 00:42 26,6 C 25,0 C 24,4 C 55 % 1016,3 hPa 0,0 l/m 0 min 0 min 0 W/m 4,5 km/h (1 Bft) 96,55 %
04.08.2018 00:44 26,5 C 25,0 C 24,4 C 55 % 1016,4 hPa 0,0 l/m 0 min 0 min 0 W/m 4,5 km/h (1 Bft) 97,14 %
04.08.2018 00:46 26,4 C 25,0 C 24,4 C 56 % 1016,4 hPa 0,0 l/m 0 min 0 min 0 W/m 2,3 km/h (1 Bft) 98,31 %
04.08.2018 00:48 26,4 C 25,0 C 24,4 C 56 % 1016,4 hPa 0,0 l/m 0 min 0 min 0 W/m 4,5 km/h (1 Bft) 97,87 %
04.08.2018 00:50 26,4 C 25,0 C 24,4 C 56 % 1016,5 hPa 0,0 l/m 0 min 0 min 0 W/m 4,5 km/h (1 Bft) 100,00 %
04.08.2018 00:52 26,4 C 25,0 C 24,4 C 56 % 1016,4 hPa 0,0 l/m 0 min 0 min 0 W/m 2,3 km/h (1 Bft) 100,00 %
04.08.2018 00:54 26,3 C 25,0 C 24,4 C 57 % 1016,4 hPa 0,0 l/m 0 min 0 min 0 W/m 0,0 km/h (0 Bft) 100,00 %
04.08.2018 00:56 26,3 C 25,0 C 23,9 C 57 % 1016,4 hPa 0,0 l/m 0 min 0 min 0 W/m 4,5 km/h (1 Bft) 100,00 %
04.08.2018 00:58 26,3 C 25,0 C 24,4 C 57 % 1016,3 hPa 0,0 l/m 0 min 0 min 0 W/m 6,8 km/h (2 Bft) 97,14 %
04.08.2018 01:00 26,3 C 25,0 C 23,9 C 57 % 1016,3 hPa 0,0 l/m 0 min 0 min 0 W/m 4,5 km/h (1 Bft) 98,31 %
04.08.2018 01:02 26,3 C 25,0 C 23,9 C 57 % 1016,3 hPa 0,0 l/m 0 min 0 min 0 W/m 2,3 km/h (1 Bft) 97,92 %
04.08.2018 01:04 26,2 C 25,0 C 23,9 C 57 % 1016,2 hPa 0,0 l/m 0 min 0 min 0 W/m 0,0 km/h (0 Bft) 100,00 %
04.08.2018 01:06 26,2 C 25,0 C 23,9 C 57 % 1016,2 hPa 0,0 l/m 0 min 0 min 0 W/m 0,0 km/h (0 Bft) 100,00 %
04.08.2018 01:08 26,2 C 25,0 C 23,9 C 58 % 1016,2 hPa 0,0 l/m 0 min 0 min 0 W/m 2,3 km/h (1 Bft) 97,87 %
04.08.2018 01:10 26,2 C 25,0 C 23,9 C 58 % 1016,2 hPa 0,0 l/m 0 min 0 min 0 W/m 4,5 km/h (1 Bft) 100,00 %
04.08.2018 01:12 26,2 C 25,0 C 23,9 C 58 % 1016,2 hPa 0,0 l/m 0 min 0 min 0 W/m 2,3 km/h (1 Bft) 100,00 %
04.08.2018 01:14 26,1 C 25,0 C 23,9 C 58 % 1016,3 hPa 0,0 l/m 0 min 0 min 0 W/m 0,0 km/h (0 Bft) 100,00 %
04.08.2018 01:16 26,1 C 25,0 C 23,9 C 58 % 1016,2 hPa 0,0 l/m 0 min 0 min 0 W/m 0,0 km/h (0 Bft) 100,00 %
04.08.2018 01:18 26,1 C 24,4 C 23,9 C 59 % 1016,3 hPa 0,0 l/m 0 min 0 min 0 W/m 0,0 km/h (0 Bft) 100,00 %
04.08.2018 01:20 26,1 C 24,4 C 23,9 C 59 % 1016,2 hPa 0,0 l/m 0 min 0 min 0 W/m 0,0 km/h (0 Bft) 100,00 %
04.08.2018 01:22 26,1 C 24,4 C 23,3 C 59 % 1016,3 hPa 0,0 l/m 0 min 0 min 0 W/m 2,3 km/h (1 Bft) 97,87 %
04.08.2018 01:24 26,1 C 24,4 C 23,9 C 60 % 1016,3 hPa 0,0 l/m 0 min 0 min 0 W/m 4,5 km/h (1 Bft) 100,00 %
04.08.2018 01:26 26,0 C 24,4 C 23,9 C 60 % 1016,3 hPa 0,0 l/m 0 min 0 min 0 W/m 4,5 km/h (1 Bft) 100,00 %
04.08.2018 01:28 25,9 C 24,4 C 23,9 C 60 % 1016,3 hPa 0,0 l/m 0 min 0 min 0 W/m 2,3 km/h (1 Bft) 100,00 %
04.08.2018 01:30 25,9 C 23,9 C 23,9 C 60 % 1016,3 hPa 0,0 l/m 0 min 0 min 0 W/m 2,3 km/h (1 Bft) 100,00 %
04.08.2018 01:32 25,9 C 23,9 C 23,3 C 59 % 1016,2 hPa 0,0 l/m 0 min 0 min 0 W/m 0,0 km/h (0 Bft) 100,00 %
04.08.2018 01:34 25,9 C 23,9 C 23,3 C 59 % 1016,2 hPa 0,0 l/m 0 min 0 min 0 W/m 0,0 km/h (0 Bft) 100,00 %
04.08.2018 01:36 25,8 C 23,9 C 23,3 C 59 % 1016,2 hPa 0,0 l/m 0 min 0 min 0 W/m 0,0 km/h (0 Bft) 100,00 %
04.08.2018 01:38 25,8 C 23,9 C 23,3 C 60 % 1016,2 hPa 0,0 l/m 0 min 0 min 0 W/m 0,0 km/h (0 Bft) 100,00 %
04.08.2018 01:40 25,7 C 23,9 C 23,3 C 60 % 1016,2 hPa 0,0 l/m 0 min 0 min 0 W/m 0,0 km/h (0 Bft) 100,00 %
04.08.2018 01:42 25,7 C 23,3 C 23,3 C 60 % 1016,2 hPa 0,0 l/m 0 min 0 min 0 W/m 2,3 km/h (1 Bft) 100,00 %
04.08.2018 01:44 25,7 C 23,3 C 22,8 C 60 % 1016,2 hPa 0,0 l/m 0 min 0 min 0 W/m 2,3 km/h (1 Bft) 100,00 %
04.08.2018 01:46 25,6 C 23,3 C 22,8 C 60 % 1016,2 hPa 0,0 l/m 0 min 0 min 0 W/m 2,3 km/h (1 Bft) 97,87 %
04.08.2018 01:48 25,6 C 23,3 C 22,8 C 61 % 1016,2 hPa 0,0 l/m 0 min 0 min 0 W/m 2,3 km/h (1 Bft) 100,00 %
04.08.2018 01:50 25,5 C 23,3 C 22,8 C 60 % 1016,2 hPa 0,0 l/m 0 min 0 min 0 W/m 0,0 km/h (0 Bft) 97,83 %
04.08.2018 01:52 25,4 C 23,3 C 22,8 C 61 % 1016,2 hPa 0,0 l/m 0 min 0 min 0 W/m 4,5 km/h (1 Bft) 100,00 %
04.08.2018 01:54 25,4 C 23,3 C 22,8 C 60 % 1016,2 hPa 0,0 l/m 0 min 0 min 0 W/m 2,3 km/h (1 Bft) 97,14 %
04.08.2018 01:56 25,3 C 23,3 C 22,8 C 61 % 1016,2 hPa 0,0 l/m 0 min 0 min 0 W/m 0,0 km/h (0 Bft) 98,31 %
04.08.2018 01:58 25,3 C 23,3 C 22,8 C 61 % 1016,2 hPa 0,0 l/m 0 min 0 min 0 W/m 0,0 km/h (0 Bft) 97,87 %
04.08.2018 02:00 25,2 C 23,3 C 22,8 C 62 % 1016,3 hPa 0,0 l/m 0 min 0 min 0 W/m 0,0 km/h (0 Bft) 97,87 %
04.08.2018 02:02 25,2 C 23,3 C 22,8 C 62 % 1016,2 hPa 0,0 l/m 0 min 0 min 0 W/m 0,0 km/h (0 Bft) 95,74 %
04.08.2018 02:04 25,1 C 23,3 C 22,8 C 62 % 1016,2 hPa 0,0 l/m 0 min 0 min 0 W/m 0,0 km/h (0 Bft) 100,00 %
04.08.2018 02:06 25,1 C 23,3 C 22,8 C 62 % 1016,2 hPa 0,0 l/m 0 min 0 min 0 W/m 0,0 km/h (0 Bft) 97,83 %
04.08.2018 02:08 25,1 C 23,3 C 22,8 C 62 % 1016,2 hPa 0,0 l/m 0 min 0 min 0 W/m 0,0 km/h (0 Bft) 96,61 %
04.08.2018 02:10 25,1 C 22,8 C 22,8 C 62 % 1016,2 hPa 0,0 l/m 0 min 0 min 0 W/m 0,0 km/h (0 Bft) 97,87 %
04.08.2018 02:12 25,0 C 22,8 C 22,8 C 63 % 1016,2 hPa 0,0 l/m 0 min 0 min 0 W/m 0,0 km/h (0 Bft) 95,74 %
04.08.2018 02:14 24,9 C 22,8 C 22,8 C 63 % 1016,3 hPa 0,0 l/m 0 min 0 min 0 W/m 0,0 km/h (0 Bft) 97,83 %
04.08.2018 02:16 24,9 C 22,8 C 22,8 C 64 % 1016,2 hPa 0,0 l/m 0 min 0 min 0 W/m 0,0 km/h (0 Bft) 97,87 %
04.08.2018 02:18 24,8 C 22,8 C 22,8 C 64 % 1016,2 hPa 0,0 l/m 0 min 0 min 0 W/m 0,0 km/h (0 Bft) 97,87 %
04.08.2018 02:20 24,8 C 22,8 C 22,8 C 64 % 1016,2 hPa 0,0 l/m 0 min 0 min 0 W/m 0,0 km/h (0 Bft) 95,74 %
04.08.2018 02:22 24,8 C 22,8 C 22,8 C 64 % 1016,2 hPa 0,0 l/m 0 min 0 min 0 W/m 0,0 km/h (0 Bft) 97,87 %
04.08.2018 02:24 24,7 C 22,8 C 22,8 C 65 % 1016,2 hPa 0,0 l/m 0 min 0 min 0 W/m 4,5 km/h (1 Bft) 97,87 %
04.08.2018 02:26 24,7 C 23,3 C 22,8 C 65 % 1016,2 hPa 0,0 l/m 0 min 0 min 0 W/m 9,0 km/h (2 Bft) 95,65 %
04.08.2018 02:28 24,7 C 23,3 C 22,8 C 65 % 1016,2 hPa 0,0 l/m 0 min 0 min 0 W/m 4,5 km/h (1 Bft) 97,87 %
04.08.2018 02:30 24,6 C 23,3 C 22,8 C 65 % 1016,2 hPa 0,0 l/m 0 min 0 min 0 W/m 4,5 km/h (1 Bft) 97,87 %
04.08.2018 02:32 24,6 C 23,3 C 22,8 C 65 % 1016,3 hPa 0,0 l/m 0 min 0 min 0 W/m 4,5 km/h (1 Bft) 97,87 %
04.08.2018 02:34 24,6 C 23,3 C 22,8 C 65 % 1016,4 hPa 0,0 l/m 0 min 0 min 0 W/m 4,5 km/h (1 Bft) 97,87 %
04.08.2018 02:36 24,5 C 23,3 C 22,8 C 65 % 1016,3 hPa 0,0 l/m 0 min 0 min 0 W/m 9,0 km/h (2 Bft) 95,65 %
04.08.2018 02:38 24,5 C 23,3 C 22,8 C 65 % 1016,3 hPa 0,0 l/m 0 min 0 min 0 W/m 4,5 km/h (1 Bft) 97,87 %
04.08.2018 02:40 24,4 C 23,3 C 22,8 C 65 % 1016,3 hPa 0,0 l/m 0 min 0 min 0 W/m 4,5 km/h (1 Bft) 97,87 %
04.08.2018 02:42 24,4 C 23,3 C 22,8 C 65 % 1016,3 hPa 0,0 l/m 0 min 0 min 0 W/m 6,8 km/h (2 Bft) 97,87 %
04.08.2018 02:44 24,3 C 23,3 C 22,8 C 65 % 1016,3 hPa 0,0 l/m 0 min 0 min 0 W/m 9,0 km/h (2 Bft) 94,29 %
04.08.2018 02:46 24,3 C 23,3 C 22,8 C 65 % 1016,4 hPa 0,0 l/m 0 min 0 min 0 W/m 9,0 km/h (2 Bft) 96,61 %
04.08.2018 02:48 24,3 C 23,3 C 22,8 C 65 % 1016,4 hPa 0,0 l/m 0 min 0 min 0 W/m 11,3 km/h (2 Bft) 100,00 %
04.08.2018 02:50 24,3 C 22,8 C 22,8 C 65 % 1016,4 hPa 0,0 l/m 0 min 0 min 0 W/m 6,8 km/h (2 Bft) 100,00 %
04.08.2018 02:52 24,2 C 22,8 C 22,8 C 65 % 1016,4 hPa 0,0 l/m 0 min 0 min 0 W/m 6,8 km/h (2 Bft) 97,87 %
04.08.2018 02:54 24,2 C 22,8 C 22,8 C 65 % 1016,3 hPa 0,0 l/m 0 min 0 min 0 W/m 6,8 km/h (2 Bft) 95,74 %
04.08.2018 02:56 24,2 C 22,8 C 22,8 C 65 % 1016,4 hPa 0,0 l/m 0 min 0 min 0 W/m 4,5 km/h (1 Bft) 97,14 %
04.08.2018 02:58 24,2 C 22,8 C 22,8 C 65 % 1016,4 hPa 0,0 l/m 0 min 0 min 0 W/m 9,0 km/h (2 Bft) 97,87 %
04.08.2018 03:00 24,1 C 22,8 C 22,8 C 65 % 1016,4 hPa 0,0 l/m 0 min 0 min 0 W/m 6,8 km/h (2 Bft) 98,31 %
04.08.2018 03:02 24,1 C 22,8 C 22,8 C 65 % 1016,4 hPa 0,0 l/m 0 min 0 min 0 W/m 4,5 km/h (1 Bft) 95,65 %
04.08.2018 03:04 24,1 C 22,8 C 22,8 C 65 % 1016,4 hPa 0,0 l/m 0 min 0 min 0 W/m 2,3 km/h (1 Bft) 97,87 %
04.08.2018 03:06 24,1 C 22,8 C 22,8 C 65 % 1016,4 hPa 0,0 l/m 0 min 0 min 0 W/m 9,0 km/h (2 Bft) 95,74 %
04.08.2018 03:08 24,0 C 22,8 C 22,8 C 65 % 1016,4 hPa 0,0 l/m 0 min 0 min 0 W/m 6,8 km/h (2 Bft) 97,87 %
04.08.2018 03:10 24,0 C 22,8 C 22,2 C 65 % 1016,4 hPa 0,0 l/m 0 min 0 min 0 W/m 9,0 km/h (2 Bft) 93,62 %
04.08.2018 03:12 23,9 C 22,8 C 22,8 C 65 % 1016,3 hPa 0,0 l/m 0 min 0 min 0 W/m 9,0 km/h (2 Bft) 97,14 %
04.08.2018 03:14 23,9 C 22,8 C 22,2 C 65 % 1016,3 hPa 0,0 l/m 0 min 0 min 0 W/m 9,0 km/h (2 Bft) 93,62 %
04.08.2018 03:16 23,9 C 22,8 C 22,8 C 66 % 1016,4 hPa 0,0 l/m 0 min 0 min 0 W/m 4,5 km/h (1 Bft) 94,83 %
04.08.2018 03:18 23,9 C 22,8 C 22,8 C 66 % 1016,3 hPa 0,0 l/m 0 min 0 min 0 W/m 9,0 km/h (2 Bft) 95,74 %
04.08.2018 03:20 23,8 C 22,8 C 22,2 C 66 % 1016,3 hPa 0,0 l/m 0 min 0 min 0 W/m 9,0 km/h (2 Bft) 95,74 %
04.08.2018 03:22 23,8 C 22,8 C 22,8 C 66 % 1016,3 hPa 0,0 l/m 0 min 0 min 0 W/m 6,8 km/h (2 Bft) 95,74 %
04.08.2018 03:24 23,8 C 22,8 C 22,8 C 66 % 1016,3 hPa 0,0 l/m 0 min 0 min 0 W/m 6,8 km/h (2 Bft) 95,65 %
04.08.2018 03:26 23,8 C 22,8 C 22,8 C 66 % 1016,3 hPa 0,0 l/m 0 min 0 min 0 W/m 4,5 km/h (1 Bft) 95,74 %
04.08.2018 03:28 23,8 C 22,8 C 22,2 C 66 % 1016,2 hPa 0,0 l/m 0 min 0 min 0 W/m 6,8 km/h (2 Bft) 94,29 %
04.08.2018 03:30 23,7 C 22,8 C 22,2 C 65 % 1016,1 hPa 0,0 l/m 0 min 0 min 0 W/m 6,8 km/h (2 Bft) 96,61 %
04.08.2018 03:32 23,7 C 22,8 C 22,2 C 65 % 1016,1 hPa 0,0 l/m 0 min 0 min 0 W/m 4,5 km/h (1 Bft) 97,92 %
04.08.2018 03:34 23,7 C 22,8 C 22,2 C 65 % 1016,1 hPa 0,0 l/m 0 min 0 min 0 W/m 6,8 km/h (2 Bft) 94,29 %
04.08.2018 03:36 23,7 C 22,8 C 22,2 C 66 % 1016,1 hPa 0,0 l/m 0 min 0 min 0 W/m 4,5 km/h (1 Bft) 96,00 %
04.08.2018 03:38 23,7 C 22,2 C 22,2 C 66 % 1016,1 hPa 0,0 l/m 0 min 0 min 0 W/m 4,5 km/h (1 Bft) 93,48 %
04.08.2018 03:40 23,6 C 22,2 C 22,2 C 66 % 1016,2 hPa 0,0 l/m 0 min 0 min 0 W/m 6,8 km/h (2 Bft) 95,74 %
04.08.2018 03:42 23,6 C 22,2 C 22,2 C 66 % 1016,2 hPa 0,0 l/m 0 min 0 min 0 W/m 9,0 km/h (2 Bft) 95,74 %
04.08.2018 03:44 23,6 C 22,2 C 22,2 C 66 % 1016,3 hPa 0,0 l/m 0 min 0 min 0 W/m 6,8 km/h (2 Bft) 93,62 %
04.08.2018 03:46 23,6 C 22,2 C 22,2 C 66 % 1016,2 hPa 0,0 l/m 0 min 0 min 0 W/m 9,0 km/h (2 Bft) 97,87 %
04.08.2018 03:48 23,5 C 22,2 C 22,2 C 66 % 1016,3 hPa 0,0 l/m 0 min 0 min 0 W/m 6,8 km/h (2 Bft) 95,74 %
04.08.2018 03:50 23,5 C 22,2 C 22,2 C 66 % 1016,2 hPa 0,0 l/m 0 min 0 min 0 W/m 6,8 km/h (2 Bft) 97,83 %
04.08.2018 03:52 23,5 C 22,2 C 22,2 C 66 % 1016,1 hPa 0,0 l/m 0 min 0 min 0 W/m 4,5 km/h (1 Bft) 95,74 %
04.08.2018 03:54 23,4 C 22,2 C 22,2 C 66 % 1016,1 hPa 0,0 l/m 0 min 0 min 0 W/m 6,8 km/h (2 Bft) 97,87 %
04.08.2018 03:56 23,4 C 22,2 C 21,7 C 66 % 1016,1 hPa 0,0 l/m 0 min 0 min 0 W/m 2,3 km/h (1 Bft) 97,87 %
04.08.2018 03:58 23,4 C 22,2 C 21,7 C 66 % 1016,1 hPa 0,0 l/m 0 min 0 min 0 W/m 2,3 km/h (1 Bft) 97,87 %
04.08.2018 04:00 23,3 C 22,2 C 21,7 C 66 % 1016,1 hPa 0,0 l/m 0 min 0 min 0 W/m 6,8 km/h (2 Bft) 93,48 %
04.08.2018 04:02 23,3 C 22,2 C 21,7 C 66 % 1016,1 hPa 0,0 l/m 0 min 0 min 0 W/m 4,5 km/h (1 Bft) 92,31 %
04.08.2018 04:04 23,3 C 21,7 C 21,7 C 66 % 1016,0 hPa 0,0 l/m 0 min 0 min 0 W/m 0,0 km/h (0 Bft) 95,74 %
04.08.2018 04:06 23,3 C 21,7 C 21,7 C 66 % 1016,0 hPa 0,0 l/m 0 min 0 min 0 W/m 0,0 km/h (0 Bft) 97,87 %
04.08.2018 04:08 23,3 C 21,7 C 21,7 C 67 % 1016,0 hPa 0,0 l/m 0 min 0 min 0 W/m 0,0 km/h (0 Bft) 97,87 %
04.08.2018 04:10 23,2 C 21,7 C 21,7 C 67 % 1016,0 hPa 0,0 l/m 0 min 0 min 0 W/m 2,3 km/h (1 Bft) 100,00 %
04.08.2018 04:12 23,2 C 21,7 C 21,7 C 67 % 1016,0 hPa 0,0 l/m 0 min 0 min 0 W/m 4,5 km/h (1 Bft) 97,83 %
04.08.2018 04:14 23,2 C 21,7 C 21,7 C 67 % 1016,0 hPa 0,0 l/m 0 min 0 min 0 W/m 2,3 km/h (1 Bft) 100,00 %
04.08.2018 04:16 23,2 C 21,7 C 21,7 C 67 % 1016,0 hPa 0,0 l/m 0 min 0 min 0 W/m 4,5 km/h (1 Bft) 100,00 %
04.08.2018 04:18 23,1 C 21,1 C 21,7 C 67 % 1016,0 hPa 0,0 l/m 0 min 0 min 0 W/m 4,5 km/h (1 Bft) 100,00 %
04.08.2018 04:20 23,1 C 21,1 C 21,7 C 67 % 1015,9 hPa 0,0 l/m 0 min 0 min 0 W/m 4,5 km/h (1 Bft) 100,00 %
04.08.2018 04:22 23,1 C 21,1 C 21,7 C 68 % 1016,0 hPa 0,0 l/m 0 min 0 min 0 W/m 4,5 km/h (1 Bft) 97,87 %
04.08.2018 04:24 23,0 C 21,1 C 21,7 C 68 % 1016,0 hPa 0,0 l/m 0 min 0 min 0 W/m 4,5 km/h (1 Bft) 100,00 %
04.08.2018 04:26 23,0 C 21,1 C 21,1 C 68 % 1016,0 hPa 0,0 l/m 0 min 0 min 0 W/m 4,5 km/h (1 Bft) 100,00 %
04.08.2018 04:28 22,9 C 21,1 C 21,1 C 68 % 1015,9 hPa 0,0 l/m 0 min 0 min 0 W/m 4,5 km/h (1 Bft) 100,00 %
04.08.2018 04:30 22,9 C 21,1 C 21,1 C 68 % 1015,9 hPa 0,0 l/m 0 min 0 min 0 W/m 2,3 km/h (1 Bft) 100,00 %
04.08.2018 04:32 22,9 C 21,1 C 21,1 C 68 % 1015,9 hPa 0,0 l/m 0 min 0 min 0 W/m 4,5 km/h (1 Bft) 95,74 %
04.08.2018 04:34 22,9 C 21,1 C 21,1 C 68 % 1015,8 hPa 0,0 l/m 0 min 0 min 0 W/m 2,3 km/h (1 Bft) 97,87 %
04.08.2018 04:36 22,8 C 21,1 C 21,1 C 68 % 1015,8 hPa 0,0 l/m 0 min 0 min 0 W/m 2,3 km/h (1 Bft) 97,83 %
04.08.2018 04:38 22,8 C 21,1 C 21,1 C 68 % 1015,8 hPa 0,0 l/m 0 min 0 min 0 W/m 0,0 km/h (0 Bft) 97,87 %
04.08.2018 04:40 22,7 C 21,1 C 21,1 C 68 % 1015,8 hPa 0,0 l/m 0 min 0 min 0 W/m 0,0 km/h (0 Bft) 97,87 %
04.08.2018 04:42 22,7 C 20,6 C 21,1 C 69 % 1015,8 hPa 0,0 l/m 0 min 0 min 0 W/m 0,0 km/h (0 Bft) 95,74 %
04.08.2018 04:44 22,7 C 21,1 C 21,1 C 69 % 1015,8 hPa 0,0 l/m 0 min 0 min 0 W/m 4,5 km/h (1 Bft) 97,87 %
04.08.2018 04:46 22,6 C 21,1 C 21,1 C 69 % 1015,8 hPa 0,0 l/m 0 min 0 min 0 W/m 2,3 km/h (1 Bft) 97,87 %
04.08.2018 04:48 22,6 C 21,1 C 21,1 C 68 % 1015,7 hPa 0,0 l/m 0 min 0 min 0 W/m 2,3 km/h (1 Bft) 97,83 %
04.08.2018 04:50 22,6 C 21,1 C 21,1 C 68 % 1015,7 hPa 0,0 l/m 0 min 0 min 0 W/m 4,5 km/h (1 Bft) 97,87 %
04.08.2018 04:52 22,6 C 20,6 C 21,1 C 69 % 1015,7 hPa 0,0 l/m 0 min 0 min 0 W/m 2,3 km/h (1 Bft) 97,87 %
04.08.2018 04:54 22,5 C 20,6 C 21,1 C 69 % 1015,7 hPa 0,0 l/m 0 min 0 min 0 W/m 4,5 km/h (1 Bft) 97,87 %
04.08.2018 04:56 22,4 C 20,6 C 21,1 C 69 % 1015,6 hPa 0,0 l/m 0 min 0 min 0 W/m 4,5 km/h (1 Bft) 97,87 %
04.08.2018 04:58 22,4 C 20,6 C 21,1 C 69 % 1015,6 hPa 0,0 l/m 0 min 0 min 0 W/m 2,3 km/h (1 Bft) 97,87 %
04.08.2018 05:00 22,4 C 20,6 C 20,6 C 69 % 1015,7 hPa 0,0 l/m 0 min 0 min 0 W/m 4,5 km/h (1 Bft) 95,65 %
04.08.2018 05:02 22,3 C 20,6 C 20,6 C 69 % 1015,6 hPa 0,0 l/m 0 min 0 min 0 W/m 4,5 km/h (1 Bft) 95,74 %
04.08.2018 05:04 22,3 C 20,6 C 20,6 C 69 % 1015,6 hPa 0,0 l/m 0 min 0 min 0 W/m 0,0 km/h (0 Bft) 97,87 %
04.08.2018 05:06 22,3 C 20,6 C 20,6 C 69 % 1015,6 hPa 0,0 l/m 0 min 0 min 0 W/m 0,0 km/h (0 Bft) 97,87 %
04.08.2018 05:08 22,2 C 20,0 C 20,6 C 70 % 1015,6 hPa 0,0 l/m 0 min 0 min 0 W/m 0,0 km/h (0 Bft) 97,87 %
04.08.2018 05:10 22,2 C 20,0 C 20,6 C 70 % 1015,6 hPa 0,0 l/m 0 min 0 min 0 W/m 0,0 km/h (0 Bft) 95,74 %
04.08.2018 05:12 22,2 C 20,0 C 20,0 C 71 % 1015,7 hPa 0,0 l/m 0 min 0 min 0 W/m 0,0 km/h (0 Bft) 97,83 %
04.08.2018 05:14 22,1 C 20,0 C 20,0 C 71 % 1015,7 hPa 0,0 l/m 0 min 0 min 0 W/m 0,0 km/h (0 Bft) 97,87 %
04.08.2018 05:16 22,1 C 20,0 C 20,0 C 71 % 1015,7 hPa 0,0 l/m 0 min 0 min 0 W/m 0,0 km/h (0 Bft) 95,74 %
04.08.2018 05:18 22,1 C 20,0 C 20,0 C 71 % 1015,7 hPa 0,0 l/m 0 min 0 min 0 W/m 0,0 km/h (0 Bft) 97,87 %
04.08.2018 05:20 22,0 C 20,0 C 20,0 C 72 % 1015,8 hPa 0,0 l/m 0 min 0 min 0 W/m 2,3 km/h (1 Bft) 97,87 %
04.08.2018 05:22 21,9 C 19,4 C 20,0 C 72 % 1015,7 hPa 0,0 l/m 0 min 0 min 0 W/m 2,3 km/h (1 Bft) 100,00 %
04.08.2018 05:24 21,9 C 20,0 C 20,0 C 72 % 1015,7 hPa 0,0 l/m 0 min 0 min 0 W/m 2,3 km/h (1 Bft) 100,00 %
04.08.2018 05:26 21,8 C 20,0 C 20,0 C 72 % 1015,8 hPa 0,0 l/m 0 min 0 min 0 W/m 2,3 km/h (1 Bft) 97,87 %
04.08.2018 05:28 21,8 C 20,0 C 20,6 C 72 % 1015,8 hPa 0,0 l/m 0 min 0 min 0 W/m 4,5 km/h (1 Bft) 100,00 %
04.08.2018 05:30 21,7 C 20,0 C 20,6 C 72 % 1015,8 hPa 0,0 l/m 0 min 0 min 0 W/m 6,8 km/h (2 Bft) 100,00 %
04.08.2018 05:32 21,7 C 20,0 C 20,6 C 72 % 1015,8 hPa 0,0 l/m 0 min 0 min 0 W/m 2,3 km/h (1 Bft) 97,96 %
04.08.2018 05:34 21,7 C 20,0 C 20,6 C 72 % 1015,8 hPa 0,0 l/m 0 min 0 min 0 W/m 2,3 km/h (1 Bft) 95,65 %
04.08.2018 05:35 21,6 C 20,0 C 20,6 C 72 % 1015,8 hPa 0,0 l/m 0 min 0 min 0 W/m 4,5 km/h (1 Bft) 100,00 %
04.08.2018 05:40 21,6 C 20,0 C 20,6 C 72 % 1015,8 hPa 0,0 l/m 0 min 0 min 0 W/m 0,0 km/h (0 Bft) 97,62 %
04.08.2018 05:42 21,5 C 20,0 C 20,6 C 72 % 1015,8 hPa 0,0 l/m 0 min 0 min 0 W/m 0,0 km/h (0 Bft) 98,18 %
04.08.2018 05:44 21,5 C 19,4 C 20,6 C 73 % 1015,9 hPa 0,0 l/m 0 min 0 min 0 W/m 0,0 km/h (0 Bft) 100,00 %
04.08.2018 05:46 21,4 C 19,4 C 20,0 C 73 % 1015,9 hPa 0,0 l/m 0 min 0 min 0 W/m 2,3 km/h (1 Bft) 100,00 %
04.08.2018 05:48 21,4 C 20,0 C 20,0 C 73 % 1015,9 hPa 0,0 l/m 0 min 0 min 0 W/m 2,3 km/h (1 Bft) 97,22 %
04.08.2018 05:50 21,4 C 20,0 C 20,0 C 73 % 1015,9 hPa 0,0 l/m 0 min 0 min 0 W/m 0,0 km/h (0 Bft) 97,87 %
04.08.2018 05:52 21,3 C 20,0 C 20,0 C 73 % 1015,9 hPa 0,0 l/m 0 min 0 min 1 W/m 0,0 km/h (0 Bft) 97,83 %
04.08.2018 05:54 21,3 C 20,0 C 20,0 C 74 % 1015,8 hPa 0,0 l/m 0 min 0 min 5 W/m 0,0 km/h (0 Bft) 97,87 %
04.08.2018 05:56 21,3 C 20,0 C 20,0 C 74 % 1015,8 hPa 0,0 l/m 0 min 0 min 5 W/m 2,3 km/h (1 Bft) 98,11 %
04.08.2018 05:58 21,3 C 20,0 C 20,0 C 74 % 1015,9 hPa 0,0 l/m 0 min 0 min 6 W/m 2,3 km/h (1 Bft) 97,87 %
04.08.2018 06:00 21,2 C 20,0 C 20,0 C 74 % 1016,0 hPa 0,0 l/m 0 min 0 min 7 W/m 2,3 km/h (1 Bft) 98,00 %
04.08.2018 06:02 21,2 C 20,0 C 20,0 C 74 % 1015,9 hPa 0,0 l/m 0 min 0 min 7 W/m 0,0 km/h (0 Bft) 94,00 %
04.08.2018 06:04 21,2 C 20,0 C 20,0 C 74 % 1015,8 hPa 0,0 l/m 0 min 0 min 7 W/m 0,0 km/h (0 Bft) 100,00 %
04.08.2018 06:06 21,2 C 20,0 C 20,0 C 74 % 1015,9 hPa 0,0 l/m 0 min 0 min 7 W/m 2,3 km/h (1 Bft) 95,74 %
04.08.2018 06:08 21,1 C 20,0 C 20,0 C 74 % 1016,1 hPa 0,0 l/m 0 min 0 min 7 W/m 0,0 km/h (0 Bft) 98,15 %
04.08.2018 06:10 21,1 C 20,0 C 20,0 C 74 % 1016,0 hPa 0,0 l/m 0 min 0 min 7 W/m 4,5 km/h (1 Bft) 97,87 %
04.08.2018 06:12 21,1 C 20,0 C 20,0 C 74 % 1016,0 hPa 0,0 l/m 0 min 0 min 8 W/m 2,3 km/h (1 Bft) 98,00 %
04.08.2018 06:14 21,1 C 20,0 C 20,0 C 74 % 1015,9 hPa 0,0 l/m 0 min 0 min 9 W/m 0,0 km/h (0 Bft) 97,22 %
04.08.2018 06:16 21,0 C 20,0 C 20,0 C 75 % 1016,0 hPa 0,0 l/m 0 min 0 min 11 W/m 0,0 km/h (0 Bft) 95,74 %
04.08.2018 06:18 21,0 C 20,0 C 20,0 C 75 % 1016,2 hPa 0,0 l/m 0 min 0 min 13 W/m 0,0 km/h (0 Bft) 96,30 %
04.08.2018 06:20 21,0 C 20,0 C 20,0 C 75 % 1016,1 hPa 0,0 l/m 0 min 0 min 15 W/m 2,3 km/h (1 Bft) 98,00 %
04.08.2018 06:22 21,0 C 20,0 C 20,0 C 75 % 1016,2 hPa 0,0 l/m 0 min 0 min 16 W/m 0,0 km/h (0 Bft) 97,30 %
04.08.2018 06:24 21,0 C 20,0 C 20,0 C 75 % 1016,2 hPa 0,0 l/m 0 min 0 min 18 W/m 2,3 km/h (1 Bft) 97,87 %
04.08.2018 06:26 21,0 C 20,0 C 20,0 C 75 % 1016,1 hPa 0,0 l/m 0 min 0 min 19 W/m 0,0 km/h (0 Bft) 95,65 %
04.08.2018 06:28 20,9 C 20,0 C 20,0 C 75 % 1016,1 hPa 0,0 l/m 0 min 0 min 19 W/m 2,3 km/h (1 Bft) 98,18 %
04.08.2018 06:30 20,9 C 20,0 C 20,0 C 75 % 1016,1 hPa 0,0 l/m 0 min 0 min 18 W/m 4,5 km/h (1 Bft) 100,00 %
04.08.2018 06:32 20,9 C 20,0 C 20,0 C 75 % 1016,1 hPa 0,0 l/m 0 min 0 min 18 W/m 2,3 km/h (1 Bft) 93,88 %
04.08.2018 06:34 20,9 C 20,0 C 20,0 C 75 % 1016,2 hPa 0,0 l/m 0 min 0 min 18 W/m 2,3 km/h (1 Bft) 100,00 %
04.08.2018 06:36 20,9 C 20,0 C 20,0 C 75 % 1016,2 hPa 0,0 l/m 0 min 0 min 18 W/m 2,3 km/h (1 Bft) 93,75 %
04.08.2018 06:38 20,9 C 20,0 C 20,0 C 75 % 1016,2 hPa 0,0 l/m 0 min 0 min 19 W/m 0,0 km/h (0 Bft) 98,11 %
04.08.2018 06:40 20,8 C 20,0 C 20,0 C 75 % 1016,2 hPa 0,0 l/m 0 min 0 min 21 W/m 0,0 km/h (0 Bft) 100,00 %
04.08.2018 06:42 20,8 C 20,0 C 20,0 C 75 % 1016,2 hPa 0,0 l/m 0 min 0 min 22 W/m 0,0 km/h (0 Bft) 100,00 %
04.08.2018 06:44 20,8 C 20,0 C 20,0 C 75 % 1016,1 hPa 0,0 l/m 0 min 0 min 24 W/m 0,0 km/h (0 Bft) 100,00 %
04.08.2018 06:46 20,8 C 20,0 C 20,0 C 75 % 1016,2 hPa 0,0 l/m 0 min 0 min 26 W/m 0,0 km/h (0 Bft) 97,87 %
04.08.2018 06:48 20,8 C 20,0 C 20,0 C 75 % 1016,2 hPa 0,0 l/m 0 min 0 min 28 W/m 2,3 km/h (1 Bft) 98,11 %
04.08.2018 06:50 20,8 C 20,0 C 20,0 C 75 % 1016,2 hPa 0,0 l/m 0 min 0 min 30 W/m 2,3 km/h (1 Bft) 98,00 %
04.08.2018 06:52 20,8 C 20,0 C 20,0 C 75 % 1016,2 hPa 0,0 l/m 0 min 0 min 33 W/m 2,3 km/h (1 Bft) 97,83 %
04.08.2018 06:54 20,8 C 20,0 C 20,0 C 75 % 1016,2 hPa 0,0 l/m 0 min 0 min 35 W/m 2,3 km/h (1 Bft) 97,87 %
04.08.2018 06:56 20,8 C 20,0 C 20,0 C 75 % 1016,2 hPa 0,0 l/m 0 min 0 min 40 W/m 0,0 km/h (0 Bft) 97,37 %
04.08.2018 06:58 20,8 C 20,0 C 20,0 C 76 % 1016,1 hPa 0,0 l/m 0 min 0 min 42 W/m 0,0 km/h (0 Bft) 97,87 %
04.08.2018 07:00 20,8 C 20,0 C 20,0 C 76 % 1016,1 hPa 0,0 l/m 0 min 0 min 45 W/m 0,0 km/h (0 Bft) 98,11 %
04.08.2018 07:02 20,8 C 20,0 C 20,0 C 76 % 1016,1 hPa 0,0 l/m 0 min 0 min 48 W/m 0,0 km/h (0 Bft) 96,00 %
04.08.2018 07:04 20,8 C 20,0 C 20,0 C 76 % 1016,1 hPa 0,0 l/m 0 min 0 min 51 W/m 0,0 km/h (0 Bft) 97,83 %
04.08.2018 07:06 20,8 C 20,6 C 20,0 C 76 % 1016,2 hPa 0,0 l/m 0 min 0 min 53 W/m 0,0 km/h (0 Bft) 97,37 %
04.08.2018 07:08 20,8 C 20,6 C 20,0 C 76 % 1016,2 hPa 0,0 l/m 0 min 0 min 54 W/m 0,0 km/h (0 Bft) 97,87 %
04.08.2018 07:10 20,8 C 20,6 C 20,6 C 76 % 1016,2 hPa 0,0 l/m 0 min 0 min 54 W/m 0,0 km/h (0 Bft) 98,15 %
04.08.2018 07:12 20,8 C 20,6 C 20,6 C 76 % 1016,2 hPa 0,0 l/m 0 min 0 min 54 W/m 0,0 km/h (0 Bft) 98,00 %
04.08.2018 07:14 20,8 C 20,6 C 20,6 C 76 % 1016,3 hPa 0,0 l/m 0 min 0 min 57 W/m 0,0 km/h (0 Bft) 97,14 %
04.08.2018 07:16 20,8 C 20,6 C 20,6 C 76 % 1016,3 hPa 0,0 l/m 0 min 0 min 60 W/m 0,0 km/h (0 Bft) 97,87 %
04.08.2018 07:18 20,8 C 20,6 C 20,6 C 76 % 1016,3 hPa 0,0 l/m 0 min 0 min 64 W/m 0,0 km/h (0 Bft) 97,87 %
04.08.2018 07:20 20,8 C 20,6 C 20,6 C 76 % 1016,3 hPa 0,0 l/m 0 min 0 min 67 W/m 0,0 km/h (0 Bft) 93,75 %
04.08.2018 07:22 20,9 C 21,1 C 20,6 C 76 % 1016,3 hPa 0,0 l/m 0 min 0 min 68 W/m 0,0 km/h (0 Bft) 96,23 %
04.08.2018 07:24 20,9 C 21,1 C 20,6 C 76 % 1016,4 hPa 0,0 l/m 0 min 0 min 69 W/m 0,0 km/h (0 Bft) 93,62 %
04.08.2018 07:26 20,9 C 21,1 C 20,6 C 76 % 1016,3 hPa 0,0 l/m 0 min 0 min 73 W/m 0,0 km/h (0 Bft) 95,92 %
04.08.2018 07:28 20,9 C 21,1 C 20,6 C 77 % 1016,4 hPa 0,0 l/m 0 min 0 min 77 W/m 0,0 km/h (0 Bft) 93,62 %
04.08.2018 07:30 20,9 C 21,1 C 20,6 C 76 % 1016,3 hPa 0,0 l/m 0 min 0 min 82 W/m 0,0 km/h (0 Bft) 94,74 %
04.08.2018 07:32 20,9 C 21,1 C 20,6 C 77 % 1016,3 hPa 0,0 l/m 0 min 0 min 84 W/m 0,0 km/h (0 Bft) 95,74 %
04.08.2018 07:34 20,9 C 21,1 C 20,6 C 77 % 1016,4 hPa 0,0 l/m 0 min 0 min 84 W/m 0,0 km/h (0 Bft) 95,74 %
04.08.2018 07:36 20,9 C 21,1 C 20,6 C 76 % 1016,3 hPa 0,0 l/m 0 min 0 min 83 W/m 0,0 km/h (0 Bft) 94,34 %
04.08.2018 07:38 21,0 C 21,1 C 20,6 C 76 % 1016,4 hPa 0,0 l/m 0 min 0 min 83 W/m 0,0 km/h (0 Bft) 96,00 %
04.08.2018 07:40 21,0 C 21,1 C 20,6 C 76 % 1016,3 hPa 0,0 l/m 0 min 0 min 83 W/m 0,0 km/h (0 Bft) 94,59 %
04.08.2018 07:42 21,0 C 21,1 C 20,6 C 76 % 1016,4 hPa 0,0 l/m 0 min 0 min 83 W/m 0,0 km/h (0 Bft) 95,74 %
04.08.2018 07:44 21,0 C 21,1 C 20,6 C 76 % 1016,4 hPa 0,0 l/m 0 min 0 min 84 W/m 6,8 km/h (2 Bft) 96,23 %
04.08.2018 07:46 21,1 C 21,1 C 21,1 C 76 % 1016,5 hPa 0,0 l/m 0 min 0 min 86 W/m 4,5 km/h (1 Bft) 94,00 %
04.08.2018 07:48 21,1 C 21,7 C 21,1 C 76 % 1016,4 hPa 0,0 l/m 0 min 0 min 90 W/m 4,5 km/h (1 Bft) 97,30 %
04.08.2018 07:50 21,1 C 21,7 C 21,1 C 76 % 1016,5 hPa 0,0 l/m 0 min 0 min 95 W/m 9,0 km/h (2 Bft) 97,87 %
04.08.2018 07:52 21,1 C 21,7 C 21,1 C 76 % 1016,5 hPa 0,0 l/m 0 min 0 min 101 W/m 6,8 km/h (2 Bft) 96,23 %
04.08.2018 07:54 21,1 C 21,7 C 21,1 C 76 % 1016,5 hPa 0,0 l/m 0 min 0 min 107 W/m 4,5 km/h (1 Bft) 97,87 %
04.08.2018 07:56 21,2 C 21,7 C 21,1 C 76 % 1016,5 hPa 0,0 l/m 0 min 0 min 110 W/m 4,5 km/h (1 Bft) 93,62 %
04.08.2018 07:58 21,2 C 21,7 C 21,1 C 76 % 1016,5 hPa 0,0 l/m 0 min 0 min 111 W/m 4,5 km/h (1 Bft) 98,00 %
04.08.2018 08:00 21,2 C 21,7 C 21,1 C 76 % 1016,5 hPa 0,0 l/m 0 min 0 min 111 W/m 4,5 km/h (1 Bft) 97,30 %
04.08.2018 08:02 21,2 C 21,7 C 21,1 C 76 % 1016,4 hPa 0,0 l/m 0 min 0 min 113 W/m 4,5 km/h (1 Bft) 97,87 %
04.08.2018 08:04 21,3 C 22,2 C 21,1 C 76 % 1016,5 hPa 0,0 l/m 0 min 0 min 114 W/m 4,5 km/h (1 Bft) 95,74 %
04.08.2018 08:06 21,3 C 22,2 C 21,1 C 75 % 1016,5 hPa 0,0 l/m 0 min 0 min 116 W/m 6,8 km/h (2 Bft) 96,23 %
04.08.2018 08:08 21,3 C 22,2 C 21,1 C 76 % 1016,4 hPa 0,0 l/m 0 min 0 min 114 W/m 6,8 km/h (2 Bft) 98,00 %
04.08.2018 08:10 21,4 C 22,2 C 21,1 C 75 % 1016,5 hPa 0,0 l/m 0 min 0 min 112 W/m 4,5 km/h (1 Bft) 100,00 %
04.08.2018 08:12 21,4 C 22,2 C 21,1 C 75 % 1016,5 hPa 0,0 l/m 0 min 0 min 108 W/m 2,3 km/h (1 Bft) 100,00 %
04.08.2018 08:14 21,4 C 22,2 C 21,1 C 75 % 1016,5 hPa 0,0 l/m 0 min 0 min 106 W/m 4,5 km/h (1 Bft) 100,00 %
04.08.2018 08:16 21,4 C 22,2 C 21,1 C 75 % 1016,6 hPa 0,0 l/m 0 min 0 min 105 W/m 4,5 km/h (1 Bft) 97,96 %
04.08.2018 08:18 21,5 C 22,2 C 21,1 C 75 % 1016,7 hPa 0,0 l/m 0 min 0 min 106 W/m 2,3 km/h (1 Bft) 97,37 %
04.08.2018 08:20 21,5 C 22,2 C 21,1 C 75 % 1016,6 hPa 0,0 l/m 0 min 0 min 111 W/m 6,8 km/h (2 Bft) 100,00 %
04.08.2018 08:22 21,6 C 22,2 C 21,1 C 74 % 1016,6 hPa 0,0 l/m 0 min 0 min 115 W/m 4,5 km/h (1 Bft) 100,00 %
04.08.2018 08:24 21,6 C 22,2 C 21,1 C 74 % 1016,6 hPa 0,0 l/m 0 min 0 min 118 W/m 4,5 km/h (1 Bft) 97,87 %
04.08.2018 08:26 21,6 C 22,2 C 21,1 C 74 % 1016,6 hPa 0,0 l/m 0 min 0 min 120 W/m 6,8 km/h (2 Bft) 97,83 %
04.08.2018 08:28 21,7 C 22,2 C 21,1 C 74 % 1016,7 hPa 0,0 l/m 0 min 0 min 120 W/m 2,3 km/h (1 Bft) 100,00 %
04.08.2018 08:30 21,7 C 22,2 C 21,1 C 74 % 1016,7 hPa 0,0 l/m 0 min 0 min 120 W/m 0,0 km/h (0 Bft) 97,87 %
04.08.2018 08:32 21,7 C 22,2 C 21,1 C 74 % 1016,7 hPa 0,0 l/m 0 min 0 min 123 W/m 6,8 km/h (2 Bft) 100,00 %
04.08.2018 08:34 21,8 C 22,2 C 21,1 C 74 % 1016,7 hPa 0,0 l/m 0 min 0 min 125 W/m 2,3 km/h (1 Bft) 100,00 %
04.08.2018 08:36 21,8 C 22,2 C 21,1 C 74 % 1016,7 hPa 0,0 l/m 0 min 0 min 128 W/m 6,8 km/h (2 Bft) 97,92 %
04.08.2018 08:38 21,8 C 22,8 C 21,1 C 73 % 1016,7 hPa 0,0 l/m 0 min 0 min 133 W/m 6,8 km/h (2 Bft) 100,00 %
04.08.2018 08:40 21,8 C 22,8 C 21,7 C 73 % 1016,8 hPa 0,0 l/m 0 min 0 min 137 W/m 6,8 km/h (2 Bft) 100,00 %
04.08.2018 08:42 21,9 C 22,8 C 21,7 C 73 % 1016,8 hPa 0,0 l/m 0 min 0 min 141 W/m 6,8 km/h (2 Bft) 100,00 %
04.08.2018 08:44 21,9 C 22,8 C 21,7 C 73 % 1016,8 hPa 0,0 l/m 0 min 0 min 149 W/m 6,8 km/h (2 Bft) 100,00 %
04.08.2018 08:46 21,9 C 22,8 C 21,7 C 73 % 1016,8 hPa 0,0 l/m 0 min 0 min 158 W/m 6,8 km/h (2 Bft) 97,87 %
04.08.2018 08:48 22,0 C 23,3 C 21,7 C 73 % 1016,7 hPa 0,0 l/m 0 min 0 min 181 W/m 11,3 km/h (2 Bft) 95,74 %
04.08.2018 08:50 22,0 C 23,3 C 21,7 C 72 % 1016,7 hPa 0,0 l/m 0 min 0 min 181 W/m 11,3 km/h (2 Bft) 97,87 %
04.08.2018 08:52 22,1 C 23,3 C 21,7 C 72 % 1016,7 hPa 0,0 l/m 2 min 0 min 234 W/m 9,0 km/h (2 Bft) 96,36 %
04.08.2018 08:54 22,1 C 23,3 C 21,7 C 72 % 1016,7 hPa 0,0 l/m 2 min 0 min 235 W/m 6,8 km/h (2 Bft) 97,87 %
04.08.2018 08:56 22,2 C 23,3 C 21,7 C 72 % 1016,7 hPa 0,0 l/m 0 min 0 min 174 W/m 6,8 km/h (2 Bft) 97,37 %
04.08.2018 08:58 22,2 C 23,3 C 21,7 C 72 % 1016,7 hPa 0,0 l/m 0 min 0 min 160 W/m 4,5 km/h (1 Bft) 97,87 %
04.08.2018 09:00 22,3 C 23,3 C 21,7 C 72 % 1016,7 hPa 0,0 l/m 0 min 0 min 158 W/m 6,8 km/h (2 Bft) 97,87 %
04.08.2018 09:02 22,3 C 23,3 C 21,7 C 72 % 1016,8 hPa 0,0 l/m 0 min 0 min 163 W/m 4,5 km/h (1 Bft) 98,15 %
04.08.2018 09:04 22,4 C 23,9 C 21,7 C 72 % 1016,8 hPa 0,0 l/m 2 min 0 min 220 W/m 2,3 km/h (1 Bft) 97,37 %
04.08.2018 09:06 22,4 C 23,9 C 22,2 C 71 % 1016,8 hPa 0,0 l/m 2 min 0 min 350 W/m 9,0 km/h (2 Bft) 97,96 %
04.08.2018 09:08 22,5 C 23,9 C 22,2 C 72 % 1016,8 hPa 0,0 l/m 2 min 0 min 334 W/m 6,8 km/h (2 Bft) 97,87 %
04.08.2018 09:10 22,6 C 23,9 C 22,2 C 71 % 1016,8 hPa 0,0 l/m 2 min 0 min 318 W/m 13,5 km/h (3 Bft) 98,15 %
04.08.2018 09:12 22,6 C 23,9 C 22,2 C 71 % 1016,8 hPa 0,0 l/m 2 min 0 min 235 W/m 11,3 km/h (2 Bft) 97,37 %
04.08.2018 09:14 22,7 C 23,9 C 22,2 C 71 % 1016,9 hPa 0,0 l/m 0 min 0 min 163 W/m 6,8 km/h (2 Bft) 97,92 %
04.08.2018 09:16 22,7 C 23,3 C 22,2 C 71 % 1016,9 hPa 0,0 l/m 0 min 0 min 128 W/m 6,8 km/h (2 Bft) 97,87 %
04.08.2018 09:18 22,7 C 23,3 C 21,7 C 71 % 1016,8 hPa 0,0 l/m 0 min 0 min 126 W/m 6,8 km/h (2 Bft) 96,30 %
04.08.2018 09:20 22,8 C 23,3 C 22,2 C 71 % 1016,8 hPa 0,0 l/m 0 min 0 min 191 W/m 2,3 km/h (1 Bft) 100,00 %
04.08.2018 09:22 22,8 C 23,9 C 22,2 C 71 % 1016,8 hPa 0,0 l/m 0 min 0 min 203 W/m 2,3 km/h (1 Bft) 95,83 %
04.08.2018 09:24 22,8 C 24,4 C 22,2 C 71 % 1016,8 hPa 0,0 l/m 2 min 0 min 340 W/m 9,0 km/h (2 Bft) 97,87 %
04.08.2018 09:26 22,9 C 24,4 C 22,2 C 70 % 1016,8 hPa 0,0 l/m 2 min 0 min 314 W/m 6,8 km/h (2 Bft) 100,00 %
04.08.2018 09:28 22,9 C 23,9 C 22,2 C 70 % 1016,8 hPa 0,0 l/m 2 min 0 min 318 W/m 6,8 km/h (2 Bft) 98,18 %
04.08.2018 09:30 23,0 C 24,4 C 22,2 C 70 % 1016,7 hPa 0,0 l/m 2 min 0 min 302 W/m 2,3 km/h (1 Bft) 97,87 %
04.08.2018 09:32 23,0 C 24,4 C 22,2 C 70 % 1016,8 hPa 0,0 l/m 2 min 0 min 326 W/m 6,8 km/h (2 Bft) 97,30 %
04.08.2018 09:34 23,1 C 24,4 C 22,8 C 70 % 1016,8 hPa 0,0 l/m 2 min 0 min 309 W/m 4,5 km/h (1 Bft) 98,00 %
04.08.2018 09:36 23,1 C 24,4 C 22,8 C 69 % 1016,8 hPa 0,0 l/m 2 min 0 min 366 W/m 4,5 km/h (1 Bft) 97,87 %
04.08.2018 09:38 23,2 C 24,4 C 22,8 C 69 % 1016,9 hPa 0,0 l/m 2 min 0 min 375 W/m 4,5 km/h (1 Bft) 100,00 %
04.08.2018 09:40 23,2 C 24,4 C 22,8 C 69 % 1016,8 hPa 0,0 l/m 2 min 0 min 318 W/m 6,8 km/h (2 Bft) 100,00 %
04.08.2018 09:42 23,3 C 23,9 C 22,8 C 68 % 1016,8 hPa 0,0 l/m 0 min 0 min 211 W/m 9,0 km/h (2 Bft) 100,00 %
04.08.2018 09:44 23,3 C 23,9 C 22,8 C 68 % 1016,8 hPa 0,0 l/m 0 min 0 min 189 W/m 2,3 km/h (1 Bft) 100,00 %
04.08.2018 09:46 23,4 C 24,4 C 22,8 C 69 % 1016,8 hPa 0,0 l/m 0 min 0 min 241 W/m 6,8 km/h (2 Bft) 100,00 %
04.08.2018 09:48 23,4 C 24,4 C 22,8 C 68 % 1016,9 hPa 0,0 l/m 0 min 0 min 259 W/m 4,5 km/h (1 Bft) 100,00 %
04.08.2018 09:50 23,5 C 25,0 C 22,8 C 68 % 1016,8 hPa 0,0 l/m 2 min 0 min 369 W/m 2,3 km/h (1 Bft) 100,00 %
04.08.2018 09:52 23,5 C 25,0 C 22,8 C 68 % 1016,9 hPa 0,0 l/m 2 min 0 min 414 W/m 6,8 km/h (2 Bft) 100,00 %
04.08.2018 09:54 23,6 C 25,6 C 22,8 C 68 % 1016,9 hPa 0,0 l/m 2 min 0 min 435 W/m 6,8 km/h (2 Bft) 100,00 %
04.08.2018 09:56 23,6 C 26,7 C 23,3 C 68 % 1016,9 hPa 0,0 l/m 2 min 0 min 464 W/m 6,8 km/h (2 Bft) 97,67 %
04.08.2018 09:58 23,7 C 28,3 C 23,3 C 68 % 1016,9 hPa 0,0 l/m 2 min 0 min 469 W/m 6,8 km/h (2 Bft) 98,00 %
04.08.2018 10:00 23,7 C 28,9 C 23,3 C 68 % 1016,9 hPa 0,0 l/m 2 min 0 min 472 W/m 6,8 km/h (2 Bft) 97,87 %
04.08.2018 10:02 23,8 C 29,4 C 23,3 C 66 % 1016,9 hPa 0,0 l/m 2 min 0 min 476 W/m 4,5 km/h (1 Bft) 97,87 %
04.08.2018 10:04 23,9 C 28,3 C 23,9 C 65 % 1016,9 hPa 0,0 l/m 2 min 0 min 482 W/m 11,3 km/h (2 Bft) 97,62 %
04.08.2018 10:06 24,0 C 27,8 C 23,9 C 65 % 1016,9 hPa 0,0 l/m 2 min 0 min 488 W/m 6,8 km/h (2 Bft) 97,87 %
04.08.2018 10:08 24,1 C 27,8 C 23,9 C 65 % 1016,9 hPa 0,0 l/m 2 min 0 min 493 W/m 6,8 km/h (2 Bft) 96,00 %
04.08.2018 10:10 24,2 C 27,2 C 23,9 C 65 % 1016,9 hPa 0,0 l/m 2 min 0 min 498 W/m 6,8 km/h (2 Bft) 93,75 %
04.08.2018 10:12 24,3 C 27,2 C 23,9 C 65 % 1016,9 hPa 0,0 l/m 2 min 0 min 502 W/m 9,0 km/h (2 Bft) 93,62 %
04.08.2018 10:14 24,5 C 26,7 C 24,4 C 64 % 1016,9 hPa 0,0 l/m 2 min 0 min 506 W/m 9,0 km/h (2 Bft) 95,74 %
04.08.2018 10:16 24,6 C 27,2 C 23,9 C 64 % 1016,9 hPa 0,0 l/m 2 min 0 min 512 W/m 4,5 km/h (1 Bft) 95,24 %
04.08.2018 10:18 24,8 C 27,2 C 24,4 C 64 % 1016,9 hPa 0,0 l/m 2 min 0 min 518 W/m 6,8 km/h (2 Bft) 94,00 %
04.08.2018 10:20 24,9 C 27,8 C 24,4 C 64 % 1016,9 hPa 0,0 l/m 2 min 0 min 522 W/m 4,5 km/h (1 Bft) 95,83 %
04.08.2018 10:22 25,1 C 27,8 C 24,4 C 63 % 1017,0 hPa 0,0 l/m 2 min 0 min 527 W/m 6,8 km/h (2 Bft) 95,74 %
04.08.2018 10:24 25,1 C 27,8 C 24,4 C 62 % 1016,9 hPa 0,0 l/m 2 min 0 min 531 W/m 6,8 km/h (2 Bft) 95,74 %
04.08.2018 10:26 25,3 C 27,8 C 24,4 C 62 % 1016,9 hPa 0,0 l/m 2 min 0 min 536 W/m 6,8 km/h (2 Bft) 95,35 %
04.08.2018 10:28 25,4 C 27,8 C 24,4 C 61 % 1017,0 hPa 0,0 l/m 2 min 0 min 540 W/m 6,8 km/h (2 Bft) 95,74 %
04.08.2018 10:30 25,5 C 28,3 C 24,4 C 62 % 1017,0 hPa 0,0 l/m 2 min 0 min 544 W/m 15,8 km/h (3 Bft) 94,00 %
04.08.2018 10:32 25,6 C 29,4 C 24,4 C 61 % 1017,0 hPa 0,0 l/m 2 min 0 min 548 W/m 6,8 km/h (2 Bft) 95,74 %
04.08.2018 10:34 25,7 C 28,9 C 25,0 C 62 % 1017,0 hPa 0,0 l/m 2 min 0 min 554 W/m 11,3 km/h (2 Bft) 93,62 %
04.08.2018 10:36 25,8 C 28,9 C 25,0 C 60 % 1017,1 hPa 0,0 l/m 2 min 0 min 560 W/m 6,8 km/h (2 Bft) 95,74 %
04.08.2018 10:38 25,9 C 30,6 C 25,0 C 60 % 1017,0 hPa 0,0 l/m 2 min 0 min 565 W/m 9,0 km/h (2 Bft) 97,67 %
04.08.2018 10:40 26,1 C 32,8 C 25,0 C 59 % 1017,0 hPa 0,0 l/m 2 min 0 min 569 W/m 13,5 km/h (3 Bft) 96,00 %
04.08.2018 10:42 26,2 C 33,9 C 25,0 C 59 % 1017,0 hPa 0,0 l/m 2 min 0 min 575 W/m 4,5 km/h (1 Bft) 97,92 %
04.08.2018 10:44 26,2 C 35,0 C 25,0 C 59 % 1017,0 hPa 0,0 l/m 2 min 0 min 577 W/m 9,0 km/h (2 Bft) 97,83 %
04.08.2018 10:46 26,3 C 36,1 C 25,0 C 60 % 1017,0 hPa 0,0 l/m 2 min 0 min 582 W/m 4,5 km/h (1 Bft) 95,45 %
04.08.2018 10:48 26,4 C 36,7 C 25,6 C 59 % 1017,0 hPa 0,0 l/m 2 min 0 min 587 W/m 6,8 km/h (2 Bft) 95,74 %
04.08.2018 10:50 26,6 C 36,7 C 25,6 C 60 % 1017,0 hPa 0,0 l/m 2 min 0 min 590 W/m 4,5 km/h (1 Bft) 95,65 %
04.08.2018 10:52 26,8 C 37,2 C 25,6 C 59 % 1017,0 hPa 0,0 l/m 2 min 0 min 595 W/m 9,0 km/h (2 Bft) 96,00 %
04.08.2018 10:54 26,9 C 37,2 C 25,6 C 58 % 1017,0 hPa 0,0 l/m 2 min 0 min 599 W/m 11,3 km/h (2 Bft) 97,87 %
04.08.2018 10:56 27,1 C 36,7 C 25,6 C 57 % 1017,1 hPa 0,0 l/m 2 min 0 min 605 W/m 11,3 km/h (2 Bft) 93,62 %
04.08.2018 10:58 27,3 C 36,7 C 25,6 C 57 % 1017,1 hPa 0,0 l/m 2 min 0 min 607 W/m 11,3 km/h (2 Bft) 97,87 %
04.08.2018 11:00 27,4 C 35,6 C 25,6 C 56 % 1017,2 hPa 0,0 l/m 2 min 0 min 612 W/m 9,0 km/h (2 Bft) 97,87 %
04.08.2018 11:02 27,6 C 35,6 C 26,1 C 56 % 1017,1 hPa 0,0 l/m 2 min 0 min 614 W/m 9,0 km/h (2 Bft) 95,35 %
04.08.2018 11:04 27,8 C 36,7 C 26,1 C 56 % 1017,1 hPa 0,0 l/m 2 min 0 min 618 W/m 13,5 km/h (3 Bft) 100,00 %
04.08.2018 11:08 28,2 C 36,1 C 26,1 C 52 % 1017,2 hPa 0,0 l/m 4 min 0 min 627 W/m 13,5 km/h (3 Bft) 100,00 %
04.08.2018 11:10 28,4 C 36,7 C 26,1 C 53 % 1017,2 hPa 0,0 l/m 2 min 0 min 632 W/m 11,3 km/h (2 Bft) 97,87 %
04.08.2018 11:12 28,6 C 36,7 C 26,1 C 52 % 1017,1 hPa 0,0 l/m 2 min 0 min 637 W/m 15,8 km/h (3 Bft) 100,00 %
04.08.2018 11:14 28,7 C 37,2 C 26,1 C 51 % 1017,2 hPa 0,0 l/m 2 min 0 min 644 W/m 9,0 km/h (2 Bft) 100,00 %
04.08.2018 11:16 28,9 C 37,2 C 26,1 C 51 % 1017,3 hPa 0,0 l/m 2 min 0 min 647 W/m 18,0 km/h (3 Bft) 100,00 %
04.08.2018 11:18 29,1 C 37,2 C 26,1 C 50 % 1017,3 hPa 0,0 l/m 2 min 0 min 651 W/m 15,8 km/h (3 Bft) 100,00 %
04.08.2018 11:20 29,2 C 37,2 C 26,1 C 50 % 1017,2 hPa 0,0 l/m 2 min 0 min 653 W/m 13,5 km/h (3 Bft) 97,87 %
04.08.2018 11:22 29,3 C 35,0 C 26,7 C 49 % 1017,2 hPa 0,0 l/m 2 min 0 min 657 W/m 15,8 km/h (3 Bft) 100,00 %
04.08.2018 11:24 29,4 C 36,1 C 26,7 C 50 % 1017,1 hPa 0,0 l/m 2 min 0 min 662 W/m 11,3 km/h (2 Bft) 100,00 %
04.08.2018 11:26 29,5 C 35,6 C 26,7 C 50 % 1017,2 hPa 0,0 l/m 2 min 0 min 665 W/m 11,3 km/h (2 Bft) 97,87 %
04.08.2018 11:28 29,7 C 36,7 C 26,7 C 49 % 1017,2 hPa 0,0 l/m 2 min 0 min 669 W/m 9,0 km/h (2 Bft) 100,00 %
04.08.2018 11:30 29,8 C 37,8 C 26,7 C 50 % 1017,2 hPa 0,0 l/m 2 min 0 min 673 W/m 9,0 km/h (2 Bft) 96,23 %
04.08.2018 11:32 29,9 C 37,8 C 26,7 C 49 % 1017,2 hPa 0,0 l/m 2 min 0 min 678 W/m 9,0 km/h (2 Bft) 100,00 %
04.08.2018 11:34 30,0 C 38,3 C 26,7 C 49 % 1017,2 hPa 0,0 l/m 2 min 0 min 681 W/m 6,8 km/h (2 Bft) 97,96 %
04.08.2018 11:36 30,1 C 38,3 C 26,7 C 48 % 1017,3 hPa 0,0 l/m 2 min 0 min 684 W/m 15,8 km/h (3 Bft) 97,87 %
04.08.2018 11:38 30,2 C 38,9 C 26,7 C 49 % 1017,3 hPa 0,0 l/m 2 min 0 min 688 W/m 9,0 km/h (2 Bft) 100,00 %
04.08.2018 11:40 30,3 C 38,9 C 26,7 C 48 % 1017,2 hPa 0,0 l/m 2 min 0 min 692 W/m 11,3 km/h (2 Bft) 96,00 %
04.08.2018 11:42 30,4 C 39,4 C 27,2 C 49 % 1017,3 hPa 0,0 l/m 2 min 0 min 694 W/m 9,0 km/h (2 Bft) 97,92 %
04.08.2018 11:44 30,6 C 39,4 C 27,2 C 48 % 1017,3 hPa 0,0 l/m 2 min 0 min 701 W/m 9,0 km/h (2 Bft) 97,87 %
04.08.2018 11:46 30,7 C 38,3 C 27,2 C 47 % 1017,2 hPa 0,0 l/m 2 min 0 min 704 W/m 15,8 km/h (3 Bft) 97,67 %
04.08.2018 11:48 30,8 C 38,9 C 27,2 C 46 % 1017,2 hPa 0,0 l/m 2 min 0 min 705 W/m 11,3 km/h (2 Bft) 97,83 %
04.08.2018 11:50 30,9 C 37,8 C 27,2 C 46 % 1017,2 hPa 0,0 l/m 2 min 0 min 710 W/m 11,3 km/h (2 Bft) 97,87 %
04.08.2018 11:52 30,9 C 37,8 C 27,2 C 47 % 1017,3 hPa 0,0 l/m 2 min 0 min 713 W/m 11,3 km/h (2 Bft) 97,87 %
04.08.2018 11:54 31,1 C 37,8 C 27,2 C 47 % 1017,3 hPa 0,0 l/m 2 min 0 min 716 W/m 13,5 km/h (3 Bft) 97,87 %
04.08.2018 11:56 31,1 C 38,9 C 27,2 C 47 % 1017,3 hPa 0,0 l/m 2 min 0 min 720 W/m 9,0 km/h (2 Bft) 98,00 %
04.08.2018 11:58 31,2 C 39,4 C 27,2 C 47 % 1017,3 hPa 0,0 l/m 2 min 0 min 723 W/m 9,0 km/h (2 Bft) 97,92 %
04.08.2018 12:00 31,3 C 38,9 C 27,8 C 46 % 1017,3 hPa 0,0 l/m 2 min 0 min 727 W/m 11,3 km/h (2 Bft) 97,87 %
04.08.2018 12:02 31,4 C 38,9 C 27,8 C 45 % 1017,2 hPa 0,0 l/m 2 min 0 min 734 W/m 13,5 km/h (3 Bft) 97,92 %
04.08.2018 12:04 31,4 C 38,9 C 27,8 C 45 % 1017,3 hPa 0,0 l/m 2 min 0 min 738 W/m 11,3 km/h (2 Bft) 97,56 %
04.08.2018 12:06 31,4 C 39,4 C 27,8 C 46 % 1017,2 hPa 0,0 l/m 2 min 0 min 732 W/m 13,5 km/h (3 Bft) 98,00 %
04.08.2018 12:08 31,5 C 38,3 C 27,8 C 46 % 1017,3 hPa 0,0 l/m 2 min 0 min 727 W/m 9,0 km/h (2 Bft) 95,92 %
04.08.2018 12:10 31,6 C 38,3 C 27,2 C 45 % 1017,2 hPa 0,0 l/m 2 min 0 min 742 W/m 11,3 km/h (2 Bft) 97,87 %
04.08.2018 12:12 31,6 C 38,9 C 27,8 C 46 % 1017,3 hPa 0,0 l/m 2 min 0 min 747 W/m 9,0 km/h (2 Bft) 95,12 %
04.08.2018 12:14 31,7 C 38,9 C 27,8 C 47 % 1017,3 hPa 0,0 l/m 2 min 0 min 745 W/m 6,8 km/h (2 Bft) 98,00 %
04.08.2018 12:16 31,7 C 37,2 C 27,8 C 45 % 1017,3 hPa 0,0 l/m 2 min 0 min 753 W/m 9,0 km/h (2 Bft) 97,87 %
04.08.2018 12:18 31,7 C 37,2 C 27,8 C 45 % 1017,3 hPa 0,0 l/m 2 min 0 min 761 W/m 11,3 km/h (2 Bft) 97,87 %
04.08.2018 12:20 31,7 C 37,2 C 27,8 C 45 % 1017,3 hPa 0,0 l/m 2 min 0 min 764 W/m 11,3 km/h (2 Bft) 100,00 %
04.08.2018 12:22 31,8 C 37,2 C 27,8 C 45 % 1017,3 hPa 0,0 l/m 2 min 0 min 771 W/m 9,0 km/h (2 Bft) 100,00 %
04.08.2018 12:24 31,8 C 37,8 C 27,8 C 45 % 1017,3 hPa 0,0 l/m 2 min 0 min 772 W/m 11,3 km/h (2 Bft) 97,87 %
04.08.2018 12:26 31,8 C 36,7 C 27,8 C 45 % 1017,3 hPa 0,0 l/m 2 min 0 min 772 W/m 11,3 km/h (2 Bft) 100,00 %
04.08.2018 12:28 31,9 C 37,2 C 27,8 C 45 % 1017,2 hPa 0,0 l/m 2 min 0 min 772 W/m 13,5 km/h (3 Bft) 100,00 %
04.08.2018 12:30 31,9 C 37,2 C 27,8 C 45 % 1017,2 hPa 0,0 l/m 2 min 0 min 568 W/m 11,3 km/h (2 Bft) 100,00 %
04.08.2018 12:32 31,9 C 37,8 C 27,8 C 46 % 1017,2 hPa 0,0 l/m 2 min 0 min 569 W/m 11,3 km/h (2 Bft) 100,00 %
04.08.2018 12:34 31,9 C 37,2 C 28,3 C 45 % 1017,2 hPa 0,0 l/m 2 min 0 min 570 W/m 15,8 km/h (3 Bft) 100,00 %
04.08.2018 12:36 31,9 C 37,2 C 28,3 C 45 % 1017,3 hPa 0,0 l/m 2 min 0 min 571 W/m 13,5 km/h (3 Bft) 100,00 %
04.08.2018 12:38 31,9 C 37,2 C 28,3 C 45 % 1017,2 hPa 0,0 l/m 2 min 0 min 572 W/m 15,8 km/h (3 Bft) 100,00 %
04.08.2018 12:40 31,9 C 37,2 C 28,3 C 46 % 1017,2 hPa 0,0 l/m 2 min 0 min 573 W/m 11,3 km/h (2 Bft) 100,00 %
04.08.2018 12:42 31,9 C 38,3 C 28,3 C 47 % 1017,2 hPa 0,0 l/m 2 min 0 min 574 W/m 6,8 km/h (2 Bft) 100,00 %
04.08.2018 12:44 31,9 C 38,9 C 28,3 C 46 % 1017,2 hPa 0,0 l/m 2 min 0 min 575 W/m 11,3 km/h (2 Bft) 100,00 %
04.08.2018 12:46 32,0 C 38,9 C 28,3 C 46 % 1017,2 hPa 0,0 l/m 2 min 0 min 576 W/m 11,3 km/h (2 Bft) 97,87 %
04.08.2018 12:48 32,0 C 39,4 C 28,3 C 46 % 1017,2 hPa 0,0 l/m 2 min 0 min 577 W/m 6,8 km/h (2 Bft) 97,87 %
04.08.2018 12:50 32,0 C 40,0 C 28,3 C 46 % 1017,2 hPa 0,0 l/m 2 min 0 min 580 W/m 11,3 km/h (2 Bft) 97,87 %
04.08.2018 12:52 32,1 C 38,9 C 28,3 C 46 % 1017,0 hPa 0,0 l/m 2 min 0 min 581 W/m 18,0 km/h (3 Bft) 97,62 %
04.08.2018 12:54 32,1 C 38,3 C 28,3 C 45 % 1017,1 hPa 0,0 l/m 2 min 0 min 565 W/m 9,0 km/h (2 Bft) 97,87 %
04.08.2018 12:56 32,1 C 38,9 C 28,3 C 46 % 1017,1 hPa 0,0 l/m 2 min 0 min 795 W/m 13,5 km/h (3 Bft) 97,87 %
04.08.2018 12:58 32,1 C 39,4 C 28,3 C 45 % 1017,1 hPa 0,0 l/m 2 min 0 min 795 W/m 9,0 km/h (2 Bft) 97,96 %
04.08.2018 13:00 32,1 C 39,4 C 28,3 C 45 % 1017,1 hPa 0,0 l/m 2 min 0 min 803 W/m 6,8 km/h (2 Bft) 97,96 %
04.08.2018 13:02 32,2 C 40,6 C 28,3 C 46 % 1017,0 hPa 0,0 l/m 2 min 0 min 730 W/m 2,3 km/h (1 Bft) 97,87 %
04.08.2018 13:04 32,2 C 39,4 C 28,3 C 45 % 1017,1 hPa 0,0 l/m 2 min 0 min 663 W/m 11,3 km/h (2 Bft) 95,65 %
04.08.2018 13:06 32,2 C 38,3 C 28,3 C 45 % 1016,9 hPa 0,0 l/m 2 min 0 min 809 W/m 13,5 km/h (3 Bft) 97,87 %
04.08.2018 13:08 32,2 C 36,7 C 28,3 C 45 % 1017,0 hPa 0,0 l/m 2 min 0 min 811 W/m 11,3 km/h (2 Bft) 97,67 %
04.08.2018 13:10 32,2 C 36,1 C 28,3 C 44 % 1017,0 hPa 0,0 l/m 2 min 0 min 810 W/m 9,0 km/h (2 Bft) 97,96 %
04.08.2018 13:12 32,2 C 36,1 C 28,3 C 45 % 1017,0 hPa 0,0 l/m 2 min 0 min 815 W/m 4,5 km/h (1 Bft) 97,96 %
04.08.2018 13:14 32,2 C 37,8 C 28,3 C 46 % 1017,0 hPa 0,0 l/m 2 min 0 min 818 W/m 11,3 km/h (2 Bft) 97,83 %
04.08.2018 13:16 32,3 C 38,9 C 28,9 C 47 % 1016,9 hPa 0,0 l/m 2 min 0 min 822 W/m 9,0 km/h (2 Bft) 97,67 %
04.08.2018 13:18 32,3 C 40,0 C 28,9 C 47 % 1016,9 hPa 0,0 l/m 2 min 0 min 830 W/m 2,3 km/h (1 Bft) 96,00 %
04.08.2018 13:20 32,3 C 39,4 C 28,9 C 44 % 1016,9 hPa 0,0 l/m 2 min 0 min 806 W/m 13,5 km/h (3 Bft) 97,87 %
04.08.2018 13:22 32,3 C 39,4 C 28,9 C 44 % 1016,9 hPa 0,0 l/m 2 min 0 min 793 W/m 11,3 km/h (2 Bft) 95,65 %
04.08.2018 13:24 32,3 C 38,9 C 28,9 C 44 % 1016,9 hPa 0,0 l/m 2 min 0 min 809 W/m 11,3 km/h (2 Bft) 97,87 %
04.08.2018 13:26 32,3 C 38,9 C 28,9 C 44 % 1016,9 hPa 0,0 l/m 2 min 0 min 838 W/m 11,3 km/h (2 Bft) 97,87 %
04.08.2018 13:28 32,3 C 37,8 C 28,9 C 43 % 1016,9 hPa 0,0 l/m 2 min 0 min 842 W/m 9,0 km/h (2 Bft) 97,92 %
04.08.2018 13:30 32,3 C 37,2 C 28,9 C 43 % 1017,0 hPa 0,0 l/m 2 min 0 min 852 W/m 11,3 km/h (2 Bft) 97,87 %
04.08.2018 13:32 32,3 C 36,1 C 28,9 C 42 % 1017,0 hPa 0,0 l/m 2 min 0 min 833 W/m 13,5 km/h (3 Bft) 100,00 %
04.08.2018 13:34 32,3 C 35,6 C 28,9 C 43 % 1016,9 hPa 0,0 l/m 2 min 0 min 756 W/m 13,5 km/h (3 Bft) 100,00 %
04.08.2018 13:36 32,3 C 34,4 C 29,4 C 43 % 1016,9 hPa 0,0 l/m 2 min 0 min 817 W/m 11,3 km/h (2 Bft) 100,00 %
04.08.2018 13:38 32,2 C 33,3 C 29,4 C 43 % 1017,0 hPa 0,0 l/m 2 min 0 min 853 W/m 15,8 km/h (3 Bft) 100,00 %
04.08.2018 13:40 32,2 C 32,8 C 28,9 C 43 % 1016,9 hPa 0,0 l/m 2 min 0 min 822 W/m 15,8 km/h (3 Bft) 97,87 %
04.08.2018 13:42 32,2 C 32,8 C 28,9 C 44 % 1016,9 hPa 0,0 l/m 2 min 0 min 816 W/m 15,8 km/h (3 Bft) 96,00 %
04.08.2018 13:44 32,2 C 32,8 C 28,9 C 45 % 1016,9 hPa 0,0 l/m 2 min 0 min 819 W/m 9,0 km/h (2 Bft) 100,00 %
04.08.2018 13:46 32,2 C 32,2 C 29,4 C 44 % 1016,8 hPa 0,0 l/m 2 min 0 min 833 W/m 13,5 km/h (3 Bft) 100,00 %
04.08.2018 13:48 32,2 C 32,2 C 29,4 C 43 % 1016,8 hPa 0,0 l/m 2 min 0 min 785 W/m 9,0 km/h (2 Bft) 100,00 %
04.08.2018 13:50 32,2 C 31,7 C 29,4 C 43 % 1016,8 hPa 0,0 l/m 2 min 0 min 830 W/m 13,5 km/h (3 Bft) 95,83 %
04.08.2018 13:52 32,2 C 31,7 C 29,4 C 44 % 1016,9 hPa 0,0 l/m 2 min 0 min 753 W/m 11,3 km/h (2 Bft) 100,00 %
04.08.2018 13:54 32,2 C 31,7 C 29,4 C 43 % 1016,8 hPa 0,0 l/m 2 min 0 min 635 W/m 6,8 km/h (2 Bft) 100,00 %
04.08.2018 13:56 32,2 C 31,7 C 29,4 C 44 % 1016,9 hPa 0,0 l/m 2 min 0 min 628 W/m 18,0 km/h (3 Bft) 100,00 %
04.08.2018 13:58 32,1 C 31,7 C 29,4 C 43 % 1016,8 hPa 0,0 l/m 2 min 0 min 742 W/m 6,8 km/h (2 Bft) 98,00 %
04.08.2018 14:00 32,1 C 31,7 C 29,4 C 44 % 1016,8 hPa 0,0 l/m 2 min 0 min 726 W/m 6,8 km/h (2 Bft) 97,96 %
04.08.2018 14:02 32,1 C 31,7 C 29,4 C 45 % 1016,8 hPa 0,0 l/m 2 min 0 min 781 W/m 4,5 km/h (1 Bft) 97,96 %
04.08.2018 14:04 32,1 C 31,7 C 29,4 C 45 % 1016,8 hPa 0,0 l/m 2 min 0 min 759 W/m 11,3 km/h (2 Bft) 97,14 %
04.08.2018 14:06 32,1 C 32,2 C 29,4 C 44 % 1016,8 hPa 0,0 l/m 2 min 0 min 829 W/m 13,5 km/h (3 Bft) 96,36 %
04.08.2018 14:08 32,1 C 31,7 C 29,4 C 45 % 1016,7 hPa 0,0 l/m 2 min 0 min 867 W/m 6,8 km/h (2 Bft) 95,92 %
04.08.2018 14:10 32,1 C 31,7 C 29,4 C 44 % 1016,7 hPa 0,0 l/m 2 min 0 min 813 W/m 20,3 km/h (4 Bft) 95,74 %
04.08.2018 14:12 32,0 C 31,7 C 29,4 C 46 % 1016,7 hPa 0,0 l/m 2 min 0 min 832 W/m 11,3 km/h (2 Bft) 95,92 %
04.08.2018 14:14 32,0 C 31,7 C 29,4 C 45 % 1016,7 hPa 0,0 l/m 2 min 0 min 839 W/m 13,5 km/h (3 Bft) 94,29 %
04.08.2018 14:16 32,0 C 31,7 C 29,4 C 45 % 1016,7 hPa 0,0 l/m 2 min 0 min 857 W/m 6,8 km/h (2 Bft) 95,65 %
04.08.2018 14:18 32,0 C 31,7 C 29,4 C 45 % 1016,7 hPa 0,0 l/m 2 min 0 min 844 W/m 13,5 km/h (3 Bft) 98,15 %
04.08.2018 14:20 32,0 C 31,7 C 29,4 C 45 % 1016,8 hPa 0,0 l/m 2 min 0 min 827 W/m 9,0 km/h (2 Bft) 94,00 %
04.08.2018 14:22 32,0 C 31,7 C 29,4 C 45 % 1016,7 hPa 0,0 l/m 2 min 0 min 825 W/m 9,0 km/h (2 Bft) 93,88 %
04.08.2018 14:24 32,0 C 31,7 C 29,4 C 46 % 1016,6 hPa 0,0 l/m 2 min 0 min 846 W/m 11,3 km/h (2 Bft) 95,65 %
04.08.2018 14:26 32,0 C 31,7 C 29,4 C 44 % 1016,7 hPa 0,0 l/m 2 min 0 min 836 W/m 15,8 km/h (3 Bft) 97,22 %
04.08.2018 14:28 32,0 C 31,7 C 30,0 C 44 % 1016,7 hPa 0,0 l/m 2 min 0 min 839 W/m 13,5 km/h (3 Bft) 95,65 %
04.08.2018 14:30 32,0 C 31,7 C 30,0 C 45 % 1016,7 hPa 0,0 l/m 2 min 0 min 824 W/m 13,5 km/h (3 Bft) 94,44 %
04.08.2018 14:32 32,0 C 31,7 C 29,4 C 45 % 1016,7 hPa 0,0 l/m 2 min 0 min 844 W/m 15,8 km/h (3 Bft) 96,00 %
04.08.2018 14:34 32,0 C 31,7 C 29,4 C 45 % 1016,6 hPa 0,0 l/m 2 min 0 min 821 W/m 13,5 km/h (3 Bft) 95,92 %
04.08.2018 14:36 32,1 C 32,2 C 29,4 C 46 % 1016,6 hPa 0,0 l/m 2 min 0 min 818 W/m 9,0 km/h (2 Bft) 94,29 %
04.08.2018 14:38 32,0 C 31,7 C 29,4 C 45 % 1016,7 hPa 0,0 l/m 2 min 0 min 837 W/m 18,0 km/h (3 Bft) 96,30 %
04.08.2018 14:40 32,1 C 31,7 C 29,4 C 46 % 1016,6 hPa 0,0 l/m 2 min 0 min 798 W/m 18,0 km/h (3 Bft) 96,00 %
04.08.2018 14:42 32,0 C 31,7 C 29,4 C 46 % 1016,6 hPa 0,0 l/m 2 min 0 min 821 W/m 13,5 km/h (3 Bft) 95,65 %
04.08.2018 14:44 32,0 C 31,7 C 29,4 C 46 % 1016,6 hPa 0,0 l/m 2 min 0 min 834 W/m 6,8 km/h (2 Bft) 95,92 %
04.08.2018 14:46 32,0 C 31,7 C 29,4 C 47 % 1016,4 hPa 0,0 l/m 2 min 0 min 844 W/m 6,8 km/h (2 Bft) 94,44 %
04.08.2018 14:48 32,0 C 31,7 C 29,4 C 46 % 1016,5 hPa 0,0 l/m 2 min 0 min 774 W/m 11,3 km/h (2 Bft) 96,23 %
04.08.2018 14:50 32,0 C 31,7 C 29,4 C 46 % 1016,3 hPa 0,0 l/m 2 min 0 min 811 W/m 11,3 km/h (2 Bft) 94,00 %
04.08.2018 14:52 32,0 C 31,7 C 29,4 C 46 % 1016,3 hPa 0,0 l/m 2 min 0 min 770 W/m 13,5 km/h (3 Bft) 95,92 %
04.08.2018 14:54 32,0 C 31,7 C 29,4 C 46 % 1016,4 hPa 0,0 l/m 2 min 0 min 741 W/m 15,8 km/h (3 Bft) 95,74 %
04.08.2018 14:56 32,0 C 31,7 C 29,4 C 46 % 1016,3 hPa 0,0 l/m 2 min 0 min 742 W/m 13,5 km/h (3 Bft) 100,00 %
04.08.2018 14:58 32,0 C 31,7 C 29,4 C 46 % 1016,4 hPa 0,0 l/m 2 min 0 min 733 W/m 13,5 km/h (3 Bft) 96,23 %
04.08.2018 15:00 32,0 C 31,7 C 29,4 C 46 % 1016,4 hPa 0,0 l/m 2 min 0 min 772 W/m 15,8 km/h (3 Bft) 97,87 %
04.08.2018 15:02 32,0 C 31,7 C 29,4 C 46 % 1016,3 hPa 0,0 l/m 2 min 0 min 739 W/m 11,3 km/h (2 Bft) 98,00 %
04.08.2018 15:04 32,0 C 31,7 C 29,4 C 46 % 1016,3 hPa 0,0 l/m 2 min 0 min 741 W/m 15,8 km/h (3 Bft) 93,62 %
04.08.2018 15:06 32,0 C 31,7 C 29,4 C 46 % 1016,3 hPa 0,0 l/m 2 min 0 min 754 W/m 13,5 km/h (3 Bft) 95,74 %
04.08.2018 15:08 32,0 C 31,7 C 29,4 C 46 % 1016,3 hPa 0,0 l/m 2 min 0 min 783 W/m 13,5 km/h (3 Bft) 95,74 %
04.08.2018 15:10 32,0 C 31,7 C 30,0 C 46 % 1016,4 hPa 0,0 l/m 2 min 0 min 807 W/m 20,3 km/h (4 Bft) 95,74 %
04.08.2018 15:12 32,0 C 32,2 C 30,0 C 45 % 1016,3 hPa 0,0 l/m 2 min 0 min 813 W/m 11,3 km/h (2 Bft) 93,62 %
04.08.2018 15:14 32,0 C 32,2 C 30,0 C 45 % 1016,3 hPa 0,0 l/m 2 min 0 min 804 W/m 20,3 km/h (4 Bft) 95,74 %
04.08.2018 15:16 32,1 C 32,2 C 30,0 C 45 % 1016,3 hPa 0,0 l/m 2 min 0 min 775 W/m 15,8 km/h (3 Bft) 95,65 %
04.08.2018 15:18 32,1 C 32,2 C 30,0 C 46 % 1016,4 hPa 0,0 l/m 2 min 0 min 768 W/m 15,8 km/h (3 Bft) 97,87 %
04.08.2018 15:20 32,1 C 32,2 C 30,0 C 46 % 1016,3 hPa 0,0 l/m 2 min 0 min 739 W/m 15,8 km/h (3 Bft) 93,62 %
04.08.2018 15:22 32,2 C 32,2 C 30,0 C 47 % 1016,3 hPa 0,0 l/m 2 min 0 min 744 W/m 15,8 km/h (3 Bft) 97,87 %
04.08.2018 15:24 32,2 C 32,2 C 30,0 C 45 % 1016,3 hPa 0,0 l/m 2 min 0 min 775 W/m 24,8 km/h (4 Bft) 95,74 %
04.08.2018 15:26 32,2 C 32,2 C 30,0 C 46 % 1016,4 hPa 0,0 l/m 2 min 0 min 764 W/m 20,3 km/h (4 Bft) 97,87 %
04.08.2018 15:28 32,2 C 32,2 C 30,0 C 46 % 1016,4 hPa 0,0 l/m 2 min 0 min 770 W/m 15,8 km/h (3 Bft) 97,83 %
04.08.2018 15:30 32,2 C 32,2 C 30,0 C 47 % 1016,4 hPa 0,0 l/m 2 min 0 min 800 W/m 13,5 km/h (3 Bft) 97,87 %
04.08.2018 15:32 32,2 C 32,2 C 30,0 C 46 % 1016,3 hPa 0,0 l/m 2 min 0 min 791 W/m 20,3 km/h (4 Bft) 98,00 %
04.08.2018 15:34 32,2 C 32,2 C 30,0 C 46 % 1016,4 hPa 0,0 l/m 2 min 0 min 689 W/m 15,8 km/h (3 Bft) 97,83 %
04.08.2018 15:36 32,2 C 32,2 C 30,0 C 47 % 1016,3 hPa 0,0 l/m 2 min 0 min 710 W/m 9,0 km/h (2 Bft) 97,87 %
04.08.2018 15:38 32,3 C 32,2 C 30,0 C 47 % 1016,3 hPa 0,0 l/m 2 min 0 min 769 W/m 9,0 km/h (2 Bft) 95,74 %
04.08.2018 15:40 32,3 C 32,8 C 30,0 C 47 % 1016,3 hPa 0,0 l/m 2 min 0 min 771 W/m 9,0 km/h (2 Bft) 97,87 %
04.08.2018 15:42 32,3 C 32,8 C 30,0 C 48 % 1016,3 hPa 0,0 l/m 2 min 0 min 762 W/m 9,0 km/h (2 Bft) 97,87 %
04.08.2018 15:44 32,3 C 32,2 C 30,0 C 46 % 1016,2 hPa 0,0 l/m 2 min 0 min 729 W/m 15,8 km/h (3 Bft) 97,87 %
04.08.2018 15:46 32,3 C 32,2 C 30,0 C 47 % 1016,2 hPa 0,0 l/m 2 min 0 min 732 W/m 9,0 km/h (2 Bft) 100,00 %
04.08.2018 15:48 32,3 C 32,8 C 30,0 C 47 % 1016,2 hPa 0,0 l/m 2 min 0 min 768 W/m 15,8 km/h (3 Bft) 100,00 %
04.08.2018 15:50 32,3 C 32,8 C 30,0 C 47 % 1016,2 hPa 0,0 l/m 2 min 0 min 771 W/m 15,8 km/h (3 Bft) 100,00 %
04.08.2018 15:52 32,3 C 32,8 C 30,0 C 47 % 1016,2 hPa 0,0 l/m 2 min 0 min 766 W/m 9,0 km/h (2 Bft) 100,00 %
04.08.2018 15:54 32,4 C 32,8 C 30,0 C 47 % 1016,3 hPa 0,0 l/m 2 min 0 min 747 W/m 11,3 km/h (2 Bft) 97,87 %
04.08.2018 15:56 32,4 C 32,8 C 30,0 C 46 % 1016,3 hPa 0,0 l/m 2 min 0 min 714 W/m 9,0 km/h (2 Bft) 100,00 %
04.08.2018 15:58 32,4 C 32,8 C 30,0 C 47 % 1016,2 hPa 0,0 l/m 2 min 0 min 690 W/m 13,5 km/h (3 Bft) 100,00 %
04.08.2018 16:00 32,4 C 32,8 C 30,0 C 47 % 1016,1 hPa 0,0 l/m 2 min 0 min 633 W/m 11,3 km/h (2 Bft) 100,00 %
04.08.2018 16:02 32,4 C 32,8 C 30,0 C 47 % 1016,2 hPa 0,0 l/m 2 min 0 min 691 W/m 15,8 km/h (3 Bft) 97,83 %
04.08.2018 16:04 32,4 C 32,8 C 30,0 C 47 % 1016,1 hPa 0,0 l/m 2 min 0 min 688 W/m 20,3 km/h (4 Bft) 97,87 %
04.08.2018 16:06 32,4 C 33,3 C 30,0 C 47 % 1016,1 hPa 0,0 l/m 2 min 0 min 671 W/m 20,3 km/h (4 Bft) 97,87 %
04.08.2018 16:08 32,4 C 33,9 C 30,0 C 48 % 1016,2 hPa 0,0 l/m 2 min 0 min 732 W/m 18,0 km/h (3 Bft) 100,00 %
04.08.2018 16:10 32,4 C 33,9 C 30,0 C 46 % 1016,2 hPa 0,0 l/m 2 min 0 min 739 W/m 11,3 km/h (2 Bft) 100,00 %
04.08.2018 16:12 32,4 C 33,9 C 30,0 C 47 % 1016,1 hPa 0,0 l/m 2 min 0 min 740 W/m 15,8 km/h (3 Bft) 100,00 %
04.08.2018 16:14 32,4 C 34,4 C 30,0 C 47 % 1016,1 hPa 0,0 l/m 2 min 0 min 710 W/m 13,5 km/h (3 Bft) 100,00 %
04.08.2018 16:16 32,4 C 34,4 C 30,0 C 46 % 1015,9 hPa 0,0 l/m 2 min 0 min 660 W/m 13,5 km/h (3 Bft) 95,83 %
04.08.2018 16:18 32,4 C 35,6 C 30,0 C 47 % 1016,1 hPa 0,0 l/m 2 min 0 min 707 W/m 18,0 km/h (3 Bft) 100,00 %
04.08.2018 16:20 32,5 C 36,1 C 30,0 C 46 % 1016,1 hPa 0,0 l/m 2 min 0 min 731 W/m 6,8 km/h (2 Bft) 100,00 %
04.08.2018 16:22 32,5 C 36,1 C 30,6 C 47 % 1016,2 hPa 0,0 l/m 2 min 0 min 706 W/m 13,5 km/h (3 Bft) 100,00 %
04.08.2018 16:24 32,5 C 35,6 C 30,0 C 47 % 1016,1 hPa 0,0 l/m 2 min 0 min 666 W/m 15,8 km/h (3 Bft) 100,00 %
04.08.2018 16:26 32,6 C 35,6 C 30,0 C 47 % 1016,1 hPa 0,0 l/m 2 min 0 min 678 W/m 22,5 km/h (4 Bft) 100,00 %
04.08.2018 16:28 32,6 C 35,6 C 30,0 C 46 % 1016,1 hPa 0,0 l/m 2 min 0 min 717 W/m 18,0 km/h (3 Bft) 100,00 %
04.08.2018 16:30 32,6 C 36,1 C 30,0 C 47 % 1016,1 hPa 0,0 l/m 2 min 0 min 718 W/m 18,0 km/h (3 Bft) 100,00 %
04.08.2018 16:32 32,6 C 36,1 C 30,0 C 47 % 1015,9 hPa 0,0 l/m 2 min 0 min 676 W/m 6,8 km/h (2 Bft) 100,00 %
04.08.2018 16:34 32,6 C 35,0 C 30,0 C 47 % 1016,1 hPa 0,0 l/m 2 min 0 min 701 W/m 11,3 km/h (2 Bft) 100,00 %
04.08.2018 16:36 32,6 C 35,6 C 30,0 C 47 % 1016,1 hPa 0,0 l/m 2 min 0 min 663 W/m 11,3 km/h (2 Bft) 100,00 %
04.08.2018 16:38 32,6 C 35,0 C 30,0 C 48 % 1015,9 hPa 0,0 l/m 2 min 0 min 649 W/m 9,0 km/h (2 Bft) 100,00 %
04.08.2018 16:40 32,6 C 35,0 C 30,0 C 47 % 1015,9 hPa 0,0 l/m 2 min 0 min 659 W/m 18,0 km/h (3 Bft) 100,00 %
04.08.2018 16:42 32,6 C 35,0 C 30,0 C 47 % 1015,9 hPa 0,0 l/m 2 min 0 min 642 W/m 13,5 km/h (3 Bft) 97,87 %
04.08.2018 16:44 32,6 C 35,0 C 30,0 C 47 % 1015,9 hPa 0,0 l/m 2 min 0 min 704 W/m 18,0 km/h (3 Bft) 100,00 %
04.08.2018 16:46 32,6 C 35,6 C 30,0 C 48 % 1016,0 hPa 0,0 l/m 2 min 0 min 674 W/m 9,0 km/h (2 Bft) 100,00 %
04.08.2018 16:48 32,6 C 35,0 C 30,0 C 47 % 1015,9 hPa 0,0 l/m 2 min 0 min 573 W/m 11,3 km/h (2 Bft) 100,00 %
04.08.2018 16:50 32,6 C 34,4 C 30,0 C 47 % 1016,0 hPa 0,0 l/m 2 min 0 min 490 W/m 13,5 km/h (3 Bft) 100,00 %
04.08.2018 16:52 32,6 C 34,4 C 30,0 C 47 % 1016,1 hPa 0,0 l/m 2 min 0 min 599 W/m 11,3 km/h (2 Bft) 100,00 %
04.08.2018 16:54 32,6 C 34,4 C 30,0 C 47 % 1016,1 hPa 0,0 l/m 2 min 0 min 551 W/m 13,5 km/h (3 Bft) 100,00 %
04.08.2018 16:56 32,6 C 34,4 C 30,0 C 47 % 1016,1 hPa 0,0 l/m 2 min 0 min 582 W/m 11,3 km/h (2 Bft) 100,00 %
04.08.2018 16:58 32,6 C 33,9 C 30,0 C 48 % 1016,1 hPa 0,0 l/m 2 min 0 min 515 W/m 9,0 km/h (2 Bft) 100,00 %
04.08.2018 17:00 32,5 C 33,3 C 30,0 C 47 % 1016,1 hPa 0,0 l/m 2 min 0 min 423 W/m 6,8 km/h (2 Bft) 100,00 %
04.08.2018 17:02 32,5 C 33,3 C 30,0 C 47 % 1015,9 hPa 0,0 l/m 2 min 0 min 530 W/m 15,8 km/h (3 Bft) 100,00 %
04.08.2018 17:04 32,5 C 33,3 C 30,0 C 47 % 1016,0 hPa 0,0 l/m 2 min 0 min 569 W/m 13,5 km/h (3 Bft) 100,00 %
04.08.2018 17:06 32,4 C 33,3 C 30,0 C 47 % 1015,9 hPa 0,0 l/m 2 min 0 min 586 W/m 13,5 km/h (3 Bft) 100,00 %
04.08.2018 17:08 32,4 C 33,3 C 30,0 C 47 % 1016,0 hPa 0,0 l/m 2 min 0 min 569 W/m 11,3 km/h (2 Bft) 100,00 %
04.08.2018 17:10 32,4 C 32,8 C 30,0 C 47 % 1016,0 hPa 0,0 l/m 2 min 0 min 506 W/m 22,5 km/h (4 Bft) 100,00 %
04.08.2018 17:12 32,4 C 32,2 C 30,0 C 47 % 1016,0 hPa 0,0 l/m 2 min 0 min 370 W/m 20,3 km/h (4 Bft) 97,87 %
04.08.2018 17:14 32,3 C 32,2 C 29,4 C 47 % 1015,9 hPa 0,0 l/m 2 min 0 min 443 W/m 13,5 km/h (3 Bft) 97,83 %
04.08.2018 17:16 32,3 C 32,2 C 29,4 C 47 % 1016,0 hPa 0,0 l/m 2 min 0 min 496 W/m 13,5 km/h (3 Bft) 100,00 %
04.08.2018 17:18 32,3 C 32,8 C 30,0 C 47 % 1015,9 hPa 0,0 l/m 2 min 0 min 561 W/m 13,5 km/h (3 Bft) 100,00 %
04.08.2018 17:20 32,2 C 33,3 C 30,0 C 48 % 1015,9 hPa 0,0 l/m 2 min 0 min 590 W/m 13,5 km/h (3 Bft) 97,87 %
04.08.2018 17:22 32,2 C 33,3 C 30,0 C 47 % 1015,9 hPa 0,0 l/m 2 min 0 min 626 W/m 18,0 km/h (3 Bft) 97,87 %
04.08.2018 17:24 32,2 C 33,9 C 30,0 C 47 % 1015,9 hPa 0,0 l/m 2 min 0 min 618 W/m 11,3 km/h (2 Bft) 97,83 %
04.08.2018 17:26 32,2 C 33,3 C 30,0 C 48 % 1016,1 hPa 0,0 l/m 2 min 0 min 599 W/m 18,0 km/h (3 Bft) 100,00 %
04.08.2018 17:28 32,2 C 33,3 C 30,0 C 47 % 1016,0 hPa 0,0 l/m 2 min 0 min 552 W/m 18,0 km/h (3 Bft) 100,00 %
04.08.2018 17:30 32,2 C 32,8 C 30,0 C 47 % 1015,9 hPa 0,0 l/m 2 min 0 min 479 W/m 20,3 km/h (4 Bft) 100,00 %
04.08.2018 17:32 32,2 C 32,2 C 30,0 C 47 % 1015,9 hPa 0,0 l/m 2 min 0 min 424 W/m 11,3 km/h (2 Bft) 97,87 %
04.08.2018 17:34 32,2 C 32,2 C 30,0 C 48 % 1016,0 hPa 0,0 l/m 2 min 0 min 470 W/m 13,5 km/h (3 Bft) 97,87 %
04.08.2018 17:36 32,2 C 32,2 C 30,0 C 47 % 1016,0 hPa 0,0 l/m 2 min 0 min 421 W/m 13,5 km/h (3 Bft) 96,36 %
04.08.2018 17:38 32,2 C 31,7 C 30,0 C 47 % 1016,0 hPa 0,0 l/m 2 min 0 min 467 W/m 11,3 km/h (2 Bft) 97,87 %
04.08.2018 17:40 32,2 C 32,2 C 30,0 C 48 % 1015,9 hPa 0,0 l/m 2 min 0 min 534 W/m 4,5 km/h (1 Bft) 97,87 %
04.08.2018 17:42 32,2 C 32,2 C 30,0 C 48 % 1015,9 hPa 0,0 l/m 2 min 0 min 566 W/m 11,3 km/h (2 Bft) 97,37 %
04.08.2018 17:44 32,2 C 32,2 C 30,0 C 47 % 1015,9 hPa 0,0 l/m 2 min 0 min 555 W/m 13,5 km/h (3 Bft) 97,87 %
04.08.2018 17:46 32,2 C 32,2 C 30,0 C 47 % 1016,0 hPa 0,0 l/m 2 min 0 min 536 W/m 9,0 km/h (2 Bft) 97,87 %
04.08.2018 17:48 32,2 C 32,2 C 30,0 C 47 % 1016,1 hPa 0,0 l/m 2 min 0 min 508 W/m 9,0 km/h (2 Bft) 95,65 %
04.08.2018 17:50 32,2 C 32,2 C 30,0 C 47 % 1016,0 hPa 0,0 l/m 2 min 0 min 488 W/m 11,3 km/h (2 Bft) 95,74 %
04.08.2018 17:52 32,1 C 32,2 C 30,0 C 47 % 1016,1 hPa 0,0 l/m 2 min 0 min 479 W/m 18,0 km/h (3 Bft) 95,74 %
04.08.2018 17:54 32,1 C 32,2 C 30,0 C 47 % 1016,1 hPa 0,0 l/m 2 min 0 min 462 W/m 9,0 km/h (2 Bft) 95,74 %
04.08.2018 17:56 32,1 C 31,7 C 30,0 C 47 % 1016,1 hPa 0,0 l/m 2 min 0 min 337 W/m 15,8 km/h (3 Bft) 95,74 %
04.08.2018 17:58 32,1 C 31,1 C 29,4 C 47 % 1016,1 hPa 0,0 l/m 0 min 0 min 156 W/m 9,0 km/h (2 Bft) 93,62 %
04.08.2018 18:00 32,0 C 30,6 C 29,4 C 47 % 1016,1 hPa 0,0 l/m 0 min 0 min 192 W/m 9,0 km/h (2 Bft) 95,65 %
04.08.2018 18:02 31,9 C 30,6 C 29,4 C 47 % 1016,1 hPa 0,0 l/m 2 min 0 min 234 W/m 9,0 km/h (2 Bft) 94,00 %
04.08.2018 18:04 31,9 C 31,1 C 29,4 C 47 % 1016,1 hPa 0,0 l/m 2 min 0 min 370 W/m 9,0 km/h (2 Bft) 93,48 %
04.08.2018 18:06 31,9 C 31,1 C 29,4 C 48 % 1016,1 hPa 0,0 l/m 2 min 0 min 433 W/m 6,8 km/h (2 Bft) 93,62 %
04.08.2018 18:08 31,8 C 31,7 C 30,0 C 48 % 1016,1 hPa 0,0 l/m 2 min 0 min 461 W/m 9,0 km/h (2 Bft) 91,49 %
04.08.2018 18:10 31,8 C 31,1 C 30,0 C 47 % 1016,1 hPa 0,0 l/m 2 min 0 min 475 W/m 18,0 km/h (3 Bft) 93,62 %
04.08.2018 18:12 31,8 C 31,7 C 30,0 C 47 % 1016,1 hPa 0,0 l/m 2 min 0 min 477 W/m 9,0 km/h (2 Bft) 91,49 %
04.08.2018 18:14 31,8 C 31,7 C 30,0 C 47 % 1016,0 hPa 0,0 l/m 2 min 0 min 453 W/m 11,3 km/h (2 Bft) 93,48 %
04.08.2018 18:16 31,8 C 31,7 C 30,0 C 47 % 1016,0 hPa 0,0 l/m 2 min 0 min 392 W/m 9,0 km/h (2 Bft) 91,49 %
04.08.2018 18:18 31,8 C 31,7 C 30,0 C 48 % 1016,1 hPa 0,0 l/m 2 min 0 min 402 W/m 4,5 km/h (1 Bft) 91,49 %
04.08.2018 18:20 31,8 C 31,1 C 30,0 C 48 % 1016,1 hPa 0,0 l/m 2 min 0 min 390 W/m 6,8 km/h (2 Bft) 93,62 %
04.08.2018 18:22 31,8 C 31,7 C 30,0 C 48 % 1016,1 hPa 0,0 l/m 2 min 0 min 403 W/m 13,5 km/h (3 Bft) 93,62 %
04.08.2018 18:24 31,8 C 31,7 C 30,0 C 48 % 1016,1 hPa 0,0 l/m 2 min 0 min 380 W/m 15,8 km/h (3 Bft) 93,62 %
04.08.2018 18:26 31,7 C 31,1 C 30,0 C 47 % 1016,1 hPa 0,0 l/m 2 min 0 min 341 W/m 15,8 km/h (3 Bft) 95,65 %
04.08.2018 18:28 31,7 C 31,1 C 29,4 C 47 % 1016,1 hPa 0,0 l/m 2 min 0 min 274 W/m 11,3 km/h (2 Bft) 93,62 %
04.08.2018 18:30 31,7 C 31,1 C 29,4 C 48 % 1016,1 hPa 0,0 l/m 2 min 0 min 235 W/m 6,8 km/h (2 Bft) 93,62 %
04.08.2018 18:32 31,6 C 30,6 C 29,4 C 48 % 1016,1 hPa 0,0 l/m 2 min 0 min 219 W/m 9,0 km/h (2 Bft) 93,75 %
04.08.2018 18:34 31,6 C 30,6 C 29,4 C 48 % 1016,1 hPa 0,0 l/m 2 min 0 min 198 W/m 13,5 km/h (3 Bft) 91,49 %
04.08.2018 18:36 31,5 C 30,6 C 29,4 C 48 % 1016,1 hPa 0,0 l/m 2 min 0 min 202 W/m 9,0 km/h (2 Bft) 93,62 %
04.08.2018 18:38 31,5 C 30,6 C 29,4 C 49 % 1016,1 hPa 0,0 l/m 2 min 0 min 208 W/m 18,0 km/h (3 Bft) 93,62 %
04.08.2018 18:40 31,4 C 30,6 C 29,4 C 48 % 1016,0 hPa 0,0 l/m 2 min 0 min 218 W/m 9,0 km/h (2 Bft) 95,74 %
04.08.2018 18:42 31,4 C 30,6 C 29,4 C 49 % 1016,1 hPa 0,0 l/m 2 min 0 min 220 W/m 6,8 km/h (2 Bft) 91,49 %
04.08.2018 18:44 31,3 C 30,6 C 28,9 C 49 % 1016,1 hPa 0,0 l/m 2 min 0 min 218 W/m 15,8 km/h (3 Bft) 95,74 %
04.08.2018 18:46 31,3 C 30,6 C 28,9 C 50 % 1016,0 hPa 0,0 l/m 2 min 0 min 219 W/m 11,3 km/h (2 Bft) 95,65 %
04.08.2018 18:48 31,2 C 30,0 C 28,9 C 50 % 1016,1 hPa 0,0 l/m 2 min 0 min 193 W/m 11,3 km/h (2 Bft) 95,74 %
04.08.2018 18:50 31,2 C 30,0 C 28,9 C 50 % 1016,1 hPa 0,0 l/m 2 min 0 min 191 W/m 20,3 km/h (4 Bft) 97,87 %
04.08.2018 18:52 31,1 C 30,0 C 28,9 C 50 % 1016,1 hPa 0,0 l/m 2 min 0 min 208 W/m 15,8 km/h (3 Bft) 97,87 %
04.08.2018 18:54 31,1 C 30,0 C 28,9 C 50 % 1016,1 hPa 0,0 l/m 2 min 0 min 173 W/m 18,0 km/h (3 Bft) 100,00 %
04.08.2018 18:56 31,0 C 30,0 C 28,9 C 50 % 1016,1 hPa 0,0 l/m 0 min 0 min 145 W/m 13,5 km/h (3 Bft) 97,83 %
04.08.2018 18:58 30,9 C 29,4 C 28,9 C 51 % 1016,1 hPa 0,0 l/m 0 min 0 min 123 W/m 15,8 km/h (3 Bft) 100,00 %
04.08.2018 19:00 30,9 C 29,4 C 28,9 C 51 % 1016,1 hPa 0,0 l/m 0 min 0 min 113 W/m 13,5 km/h (3 Bft) 100,00 %
04.08.2018 19:02 30,8 C 29,4 C 28,3 C 51 % 1016,1 hPa 0,0 l/m 0 min 0 min 106 W/m 18,0 km/h (3 Bft) 95,83 %
04.08.2018 19:04 30,8 C 29,4 C 28,3 C 51 % 1016,1 hPa 0,0 l/m 0 min 0 min 102 W/m 15,8 km/h (3 Bft) 97,87 %
04.08.2018 19:06 30,7 C 29,4 C 28,3 C 52 % 1016,2 hPa 0,0 l/m 0 min 0 min 98 W/m 20,3 km/h (4 Bft) 97,87 %
04.08.2018 19:08 30,6 C 29,4 C 28,3 C 52 % 1016,2 hPa 0,0 l/m 0 min 0 min 96 W/m 24,8 km/h (4 Bft) 100,00 %
04.08.2018 19:10 30,5 C 28,9 C 28,3 C 52 % 1016,2 hPa 0,0 l/m 0 min 0 min 94 W/m 31,5 km/h (5 Bft) 100,00 %
04.08.2018 19:12 30,4 C 28,9 C 27,8 C 53 % 1016,2 hPa 0,0 l/m 0 min 0 min 90 W/m 20,3 km/h (4 Bft) 100,00 %
04.08.2018 19:14 30,3 C 28,9 C 27,8 C 54 % 1016,2 hPa 0,0 l/m 0 min 0 min 88 W/m 13,5 km/h (3 Bft) 100,00 %
04.08.2018 19:16 30,2 C 28,9 C 27,8 C 54 % 1016,2 hPa 0,0 l/m 0 min 0 min 85 W/m 18,0 km/h (3 Bft) 100,00 %
04.08.2018 19:18 30,1 C 28,9 C 27,8 C 54 % 1016,3 hPa 0,0 l/m 0 min 0 min 82 W/m 11,3 km/h (2 Bft) 100,00 %
04.08.2018 19:20 30,0 C 28,3 C 27,8 C 55 % 1016,2 hPa 0,0 l/m 0 min 0 min 78 W/m 11,3 km/h (2 Bft) 100,00 %
04.08.2018 19:22 29,9 C 28,3 C 27,8 C 55 % 1016,2 hPa 0,0 l/m 0 min 0 min 76 W/m 18,0 km/h (3 Bft) 100,00 %
04.08.2018 19:24 29,8 C 28,3 C 27,8 C 55 % 1016,3 hPa 0,0 l/m 0 min 0 min 73 W/m 22,5 km/h (4 Bft) 97,87 %
04.08.2018 19:26 29,8 C 28,3 C 27,8 C 55 % 1016,3 hPa 0,0 l/m 0 min 0 min 72 W/m 15,8 km/h (3 Bft) 97,87 %
04.08.2018 19:28 29,7 C 28,3 C 27,8 C 55 % 1016,3 hPa 0,0 l/m 0 min 0 min 72 W/m 20,3 km/h (4 Bft) 100,00 %
04.08.2018 19:30 29,7 C 28,3 C 27,8 C 56 % 1016,3 hPa 0,0 l/m 0 min 0 min 74 W/m 18,0 km/h (3 Bft) 100,00 %
04.08.2018 19:32 29,6 C 28,3 C 27,8 C 56 % 1016,3 hPa 0,0 l/m 0 min 0 min 75 W/m 13,5 km/h (3 Bft) 97,83 %
04.08.2018 19:34 29,6 C 28,3 C 27,8 C 56 % 1016,3 hPa 0,0 l/m 0 min 0 min 77 W/m 9,0 km/h (2 Bft) 97,87 %
04.08.2018 19:36 29,5 C 28,3 C 27,8 C 56 % 1016,3 hPa 0,0 l/m 0 min 0 min 78 W/m 13,5 km/h (3 Bft) 100,00 %
04.08.2018 19:38 29,4 C 28,3 C 27,8 C 56 % 1016,3 hPa 0,0 l/m 0 min 0 min 80 W/m 11,3 km/h (2 Bft) 100,00 %
04.08.2018 19:40 29,4 C 28,3 C 27,2 C 57 % 1016,4 hPa 0,0 l/m 0 min 0 min 83 W/m 13,5 km/h (3 Bft) 100,00 %
04.08.2018 19:42 29,3 C 28,3 C 27,2 C 57 % 1016,4 hPa 0,0 l/m 0 min 0 min 84 W/m 20,3 km/h (4 Bft) 100,00 %
04.08.2018 19:44 29,3 C 28,3 C 27,8 C 57 % 1016,4 hPa 0,0 l/m 0 min 0 min 84 W/m 13,5 km/h (3 Bft) 100,00 %
04.08.2018 19:46 29,3 C 28,3 C 27,2 C 57 % 1016,4 hPa 0,0 l/m 0 min 0 min 86 W/m 11,3 km/h (2 Bft) 100,00 %
04.08.2018 19:48 29,2 C 28,3 C 27,2 C 57 % 1016,4 hPa 0,0 l/m 0 min 0 min 85 W/m 15,8 km/h (3 Bft) 100,00 %
04.08.2018 19:50 29,2 C 28,3 C 27,2 C 57 % 1016,4 hPa 0,0 l/m 0 min 0 min 84 W/m 9,0 km/h (2 Bft) 100,00 %
04.08.2018 19:52 29,2 C 27,8 C 27,2 C 57 % 1016,5 hPa 0,0 l/m 0 min 0 min 84 W/m 15,8 km/h (3 Bft) 100,00 %
04.08.2018 19:54 29,1 C 27,8 C 27,2 C 57 % 1016,4 hPa 0,0 l/m 0 min 0 min 83 W/m 11,3 km/h (2 Bft) 100,00 %
04.08.2018 19:56 29,1 C 27,8 C 27,2 C 57 % 1016,5 hPa 0,0 l/m 0 min 0 min 83 W/m 18,0 km/h (3 Bft) 100,00 %
04.08.2018 19:58 29,0 C 27,8 C 27,2 C 57 % 1016,5 hPa 0,0 l/m 0 min 0 min 83 W/m 15,8 km/h (3 Bft) 97,87 %
04.08.2018 20:00 28,9 C 27,8 C 27,2 C 57 % 1016,6 hPa 0,0 l/m 0 min 0 min 83 W/m 18,0 km/h (3 Bft) 100,00 %
04.08.2018 20:02 28,9 C 27,8 C 27,2 C 57 % 1016,6 hPa 0,0 l/m 2 min 0 min 84 W/m 18,0 km/h (3 Bft) 100,00 %
04.08.2018 20:04 28,8 C 27,8 C 27,2 C 57 % 1016,7 hPa 0,0 l/m 2 min 0 min 84 W/m 15,8 km/h (3 Bft) 100,00 %
04.08.2018 20:06 28,8 C 27,2 C 26,7 C 58 % 1016,8 hPa 0,0 l/m 2 min 0 min 82 W/m 13,5 km/h (3 Bft) 100,00 %
04.08.2018 20:08 28,7 C 27,2 C 26,7 C 58 % 1016,7 hPa 0,0 l/m 2 min 0 min 78 W/m 24,8 km/h (4 Bft) 100,00 %
04.08.2018 20:10 28,6 C 27,2 C 26,7 C 57 % 1016,7 hPa 0,0 l/m 2 min 0 min 76 W/m 22,5 km/h (4 Bft) 100,00 %
04.08.2018 20:12 28,6 C 27,2 C 26,7 C 58 % 1016,7 hPa 0,0 l/m 2 min 0 min 76 W/m 18,0 km/h (3 Bft) 100,00 %
04.08.2018 20:14 28,5 C 27,2 C 26,7 C 58 % 1016,8 hPa 0,0 l/m 2 min 0 min 73 W/m 15,8 km/h (3 Bft) 97,87 %
04.08.2018 20:16 28,4 C 27,2 C 26,7 C 58 % 1016,8 hPa 0,0 l/m 2 min 0 min 70 W/m 24,8 km/h (4 Bft) 100,00 %
04.08.2018 20:18 28,3 C 27,2 C 26,7 C 58 % 1016,8 hPa 0,0 l/m 2 min 0 min 68 W/m 15,8 km/h (3 Bft) 100,00 %
04.08.2018 20:20 28,3 C 26,7 C 26,7 C 58 % 1016,9 hPa 0,0 l/m 2 min 0 min 64 W/m 9,0 km/h (2 Bft) 100,00 %
04.08.2018 20:22 28,2 C 23,9 C 25,6 C 59 % 1016,9 hPa 0,0 l/m 2 min 0 min 60 W/m 20,3 km/h (4 Bft) 100,00 %
04.08.2018 20:24 28,2 C 22,8 C 23,3 C 60 % 1016,9 hPa 0,0 l/m 2 min 0 min 56 W/m 20,3 km/h (4 Bft) 100,00 %
04.08.2018 20:26 28,1 C 22,8 C 23,9 C 59 % 1016,9 hPa 0,0 l/m 0 min 0 min 53 W/m 20,3 km/h (4 Bft) 97,87 %
04.08.2018 20:28 28,0 C 22,8 C 23,3 C 60 % 1017,0 hPa 0,0 l/m 2 min 0 min 51 W/m 13,5 km/h (3 Bft) 100,00 %
04.08.2018 20:30 27,9 C 22,2 C 23,9 C 60 % 1016,9 hPa 0,0 l/m 0 min 0 min 48 W/m 18,0 km/h (3 Bft) 100,00 %
04.08.2018 20:32 27,8 C 22,2 C 23,9 C 60 % 1016,9 hPa 0,0 l/m 0 min 0 min 44 W/m 18,0 km/h (3 Bft) 100,00 %
04.08.2018 20:34 27,7 C 21,7 C 21,7 C 61 % 1017,0 hPa 0,0 l/m 0 min 0 min 40 W/m 15,8 km/h (3 Bft) 97,87 %
04.08.2018 20:36 27,6 C 21,1 C 20,6 C 62 % 1016,9 hPa 0,0 l/m 0 min 0 min 36 W/m 13,5 km/h (3 Bft) 97,87 %
04.08.2018 20:38 27,4 C 20,6 C 20,6 C 61 % 1016,9 hPa 0,0 l/m 0 min 0 min 33 W/m 27,0 km/h (4 Bft) 97,87 %
04.08.2018 20:40 27,4 C 20,6 C 20,6 C 62 % 1017,0 hPa 0,0 l/m 0 min 0 min 30 W/m 20,3 km/h (4 Bft) 97,83 %
04.08.2018 20:42 27,2 C 20,6 C 20,6 C 62 % 1017,1 hPa 0,0 l/m 0 min 0 min 28 W/m 18,0 km/h (3 Bft) 97,87 %
04.08.2018 20:44 27,1 C 20,6 C 20,6 C 62 % 1017,1 hPa 0,0 l/m 0 min 0 min 26 W/m 20,3 km/h (4 Bft) 97,87 %
04.08.2018 20:46 27,0 C 21,1 C 20,6 C 63 % 1017,2 hPa 0,0 l/m 0 min 0 min 24 W/m 15,8 km/h (3 Bft) 97,87 %
04.08.2018 20:48 26,9 C 21,1 C 20,6 C 63 % 1017,2 hPa 0,0 l/m 0 min 0 min 21 W/m 4,5 km/h (1 Bft) 97,87 %
04.08.2018 20:50 26,8 C 21,1 C 20,0 C 64 % 1017,2 hPa 0,0 l/m 0 min 0 min 19 W/m 4,5 km/h (1 Bft) 95,74 %
04.08.2018 20:52 26,8 C 20,0 C 20,0 C 65 % 1017,3 hPa 0,0 l/m 0 min 0 min 18 W/m 6,8 km/h (2 Bft) 100,00 %
04.08.2018 20:54 26,7 C 20,6 C 20,0 C 65 % 1017,4 hPa 0,0 l/m 0 min 0 min 15 W/m 15,8 km/h (3 Bft) 97,87 %
04.08.2018 20:56 26,6 C 20,6 C 19,4 C 64 % 1017,3 hPa 0,0 l/m 0 min 0 min 14 W/m 13,5 km/h (3 Bft) 93,48 %
04.08.2018 20:58 26,5 C 20,0 C 18,9 C 64 % 1017,4 hPa 0,0 l/m 0 min 0 min 12 W/m 11,3 km/h (2 Bft) 95,74 %
04.08.2018 21:00 26,4 C 19,4 C 19,4 C 65 % 1017,3 hPa 0,0 l/m 0 min 0 min 11 W/m 20,3 km/h (4 Bft) 97,87 %
04.08.2018 21:02 26,2 C 19,4 C 19,4 C 65 % 1017,4 hPa 0,0 l/m 0 min 0 min 10 W/m 29,3 km/h (5 Bft) 95,74 %
04.08.2018 21:04 26,1 C 19,4 C 18,9 C 66 % 1017,4 hPa 0,0 l/m 0 min 0 min 9 W/m 18,0 km/h (3 Bft) 95,74 %
04.08.2018 21:06 25,9 C 19,4 C 18,9 C 66 % 1017,4 hPa 0,0 l/m 0 min 0 min 8 W/m 11,3 km/h (2 Bft) 93,48 %
04.08.2018 21:08 25,9 C 19,4 C 18,9 C 66 % 1017,4 hPa 0,0 l/m 0 min 0 min 7 W/m 9,0 km/h (2 Bft) 95,74 %
04.08.2018 21:10 25,8 C 19,4 C 18,9 C 66 % 1017,4 hPa 0,0 l/m 0 min 0 min 7 W/m 15,8 km/h (3 Bft) 95,74 %
04.08.2018 21:12 25,7 C 19,4 C 18,9 C 67 % 1017,5 hPa 0,0 l/m 0 min 0 min 5 W/m 6,8 km/h (2 Bft) 93,62 %
04.08.2018 21:14 25,6 C 19,4 C 18,9 C 67 % 1017,4 hPa 0,0 l/m 0 min 0 min 5 W/m 15,8 km/h (3 Bft) 91,49 %
04.08.2018 21:16 25,5 C 19,4 C 19,4 C 67 % 1017,5 hPa 0,0 l/m 0 min 0 min 5 W/m 13,5 km/h (3 Bft) 93,62 %
04.08.2018 21:18 25,4 C 18,9 C 18,9 C 68 % 1017,6 hPa 0,0 l/m 0 min 0 min 0 W/m 4,5 km/h (1 Bft) 93,48 %
04.08.2018 21:20 25,3 C 18,9 C 18,9 C 68 % 1017,6 hPa 0,0 l/m 0 min 0 min 0 W/m 11,3 km/h (2 Bft) 93,62 %
04.08.2018 21:22 25,2 C 18,9 C 18,9 C 68 % 1017,6 hPa 0,0 l/m 0 min 0 min 0 W/m 6,8 km/h (2 Bft) 95,74 %
04.08.2018 21:24 25,2 C 18,9 C 18,9 C 69 % 1017,6 hPa 0,0 l/m 0 min 0 min 0 W/m 11,3 km/h (2 Bft) 93,62 %
04.08.2018 21:26 25,1 C 18,9 C 18,3 C 69 % 1017,6 hPa 0,0 l/m 0 min 0 min 0 W/m 9,0 km/h (2 Bft) 93,62 %
04.08.2018 21:28 25,1 C 18,9 C 18,9 C 68 % 1017,7 hPa 0,0 l/m 0 min 0 min 0 W/m 9,0 km/h (2 Bft) 93,62 %
04.08.2018 21:30 24,9 C 18,9 C 18,9 C 68 % 1017,7 hPa 0,0 l/m 0 min 0 min 0 W/m 11,3 km/h (2 Bft) 95,65 %
04.08.2018 21:32 24,8 C 18,9 C 18,3 C 68 % 1017,7 hPa 0,0 l/m 0 min 0 min 0 W/m 20,3 km/h (4 Bft) 92,45 %
04.08.2018 21:34 24,8 C 18,9 C 18,9 C 69 % 1017,8 hPa 0,0 l/m 0 min 0 min 0 W/m 13,5 km/h (3 Bft) 93,62 %
04.08.2018 21:36 24,7 C 18,9 C 18,9 C 69 % 1017,8 hPa 0,0 l/m 0 min 0 min 0 W/m 6,8 km/h (2 Bft) 97,87 %
04.08.2018 21:38 24,6 C 18,9 C 18,9 C 69 % 1017,9 hPa 0,0 l/m 0 min 0 min 0 W/m 18,0 km/h (3 Bft) 95,74 %
04.08.2018 21:40 24,6 C 18,3 C 18,9 C 70 % 1017,9 hPa 0,0 l/m 0 min 0 min 0 W/m 9,0 km/h (2 Bft) 95,74 %
04.08.2018 21:42 24,5 C 18,9 C 18,9 C 70 % 1017,9 hPa 0,0 l/m 0 min 0 min 0 W/m 11,3 km/h (2 Bft) 93,62 %
04.08.2018 21:44 24,4 C 18,9 C 18,9 C 70 % 1018,0 hPa 0,0 l/m 0 min 0 min 0 W/m 6,8 km/h (2 Bft) 95,65 %
04.08.2018 21:46 24,3 C 18,9 C 18,3 C 70 % 1018,0 hPa 0,0 l/m 0 min 0 min 0 W/m 4,5 km/h (1 Bft) 93,62 %
04.08.2018 21:48 24,3 C 18,9 C 18,3 C 71 % 1018,0 hPa 0,0 l/m 0 min 0 min 0 W/m 6,8 km/h (2 Bft) 95,74 %
04.08.2018 21:50 24,2 C 18,9 C 18,3 C 71 % 1018,0 hPa 0,0 l/m 0 min 0 min 0 W/m 13,5 km/h (3 Bft) 93,62 %
04.08.2018 21:52 24,2 C 18,9 C 18,3 C 71 % 1018,1 hPa 0,0 l/m 0 min 0 min 0 W/m 15,8 km/h (3 Bft) 95,74 %
04.08.2018 21:54 24,1 C 18,9 C 18,3 C 72 % 1018,1 hPa 0,0 l/m 0 min 0 min 0 W/m 15,8 km/h (3 Bft) 95,74 %
04.08.2018 21:56 24,1 C 18,9 C 18,9 C 72 % 1018,1 hPa 0,0 l/m 0 min 0 min 0 W/m 15,8 km/h (3 Bft) 95,65 %
04.08.2018 21:58 24,0 C 18,9 C 18,9 C 73 % 1018,2 hPa 0,0 l/m 0 min 0 min 0 W/m 9,0 km/h (2 Bft) 95,74 %
04.08.2018 22:00 23,9 C 18,9 C 18,3 C 73 % 1018,2 hPa 0,0 l/m 0 min 0 min 0 W/m 9,0 km/h (2 Bft) 97,87 %
04.08.2018 22:02 23,9 C 18,9 C 18,3 C 73 % 1018,1 hPa 0,0 l/m 0 min 0 min 0 W/m 11,3 km/h (2 Bft) 95,92 %
04.08.2018 22:04 23,9 C 18,9 C 18,3 C 74 % 1018,2 hPa 0,0 l/m 0 min 0 min 0 W/m 6,8 km/h (2 Bft) 95,74 %
04.08.2018 22:06 23,8 C 18,9 C 18,3 C 74 % 1018,2 hPa 0,0 l/m 0 min 0 min 0 W/m 13,5 km/h (3 Bft) 95,74 %
04.08.2018 22:08 23,8 C 18,9 C 18,3 C 74 % 1018,2 hPa 0,0 l/m 0 min 0 min 0 W/m 18,0 km/h (3 Bft) 97,83 %
04.08.2018 22:10 23,7 C 18,9 C 18,9 C 75 % 1018,3 hPa 0,0 l/m 0 min 0 min 0 W/m 9,0 km/h (2 Bft) 95,74 %
04.08.2018 22:12 23,7 C 18,9 C 18,3 C 75 % 1018,2 hPa 0,0 l/m 0 min 0 min 0 W/m 9,0 km/h (2 Bft) 100,00 %
04.08.2018 22:14 23,6 C 18,9 C 18,9 C 75 % 1018,3 hPa 0,0 l/m 0 min 0 min 0 W/m 11,3 km/h (2 Bft) 97,87 %
04.08.2018 22:16 23,6 C 18,9 C 18,3 C 75 % 1018,3 hPa 0,0 l/m 0 min 0 min 0 W/m 9,0 km/h (2 Bft) 100,00 %
04.08.2018 22:18 23,6 C 18,9 C 18,3 C 75 % 1018,3 hPa 0,0 l/m 0 min 0 min 0 W/m 11,3 km/h (2 Bft) 100,00 %
04.08.2018 22:20 23,5 C 18,9 C 18,3 C 76 % 1018,3 hPa 0,0 l/m 0 min 0 min 0 W/m 9,0 km/h (2 Bft) 97,83 %
04.08.2018 22:22 23,5 C 18,9 C 18,3 C 76 % 1018,3 hPa 0,0 l/m 0 min 0 min 0 W/m 9,0 km/h (2 Bft) 100,00 %
04.08.2018 22:24 23,4 C 18,9 C 18,3 C 76 % 1018,3 hPa 0,0 l/m 0 min 0 min 0 W/m 11,3 km/h (2 Bft) 100,00 %
04.08.2018 22:26 23,4 C 18,9 C 18,3 C 76 % 1018,3 hPa 0,0 l/m 0 min 0 min 0 W/m 9,0 km/h (2 Bft) 100,00 %
04.08.2018 22:28 23,3 C 18,9 C 18,3 C 76 % 1018,3 hPa 0,8 l/m 0 min 0 min 0 W/m 13,5 km/h (3 Bft) 100,00 %
04.08.2018 22:30 23,3 C 18,9 C 18,3 C 77 % 1018,3 hPa 0,0 l/m 0 min 0 min 0 W/m 6,8 km/h (2 Bft) 97,83 %
04.08.2018 22:32 23,2 C 18,9 C 18,3 C 77 % 1018,3 hPa 0,2 l/m 0 min 0 min 0 W/m 9,0 km/h (2 Bft) 100,00 %
04.08.2018 22:34 23,2 C 18,9 C 18,3 C 77 % 1018,3 hPa 0,0 l/m 0 min 0 min 0 W/m 9,0 km/h (2 Bft) 100,00 %
04.08.2018 22:36 23,2 C 18,9 C 18,3 C 78 % 1018,3 hPa 0,0 l/m 0 min 0 min 0 W/m 9,0 km/h (2 Bft) 100,00 %
04.08.2018 22:38 23,1 C 18,9 C 18,3 C 78 % 1018,3 hPa 0,0 l/m 0 min 0 min 0 W/m 4,5 km/h (1 Bft) 100,00 %
04.08.2018 22:40 23,1 C 18,9 C 18,3 C 78 % 1018,4 hPa 0,0 l/m 0 min 0 min 0 W/m 9,0 km/h (2 Bft) 100,00 %
04.08.2018 22:42 23,1 C 18,9 C 18,9 C 78 % 1018,4 hPa 0,0 l/m 0 min 0 min 0 W/m 9,0 km/h (2 Bft) 100,00 %
04.08.2018 22:44 23,0 C 18,9 C 18,9 C 78 % 1018,4 hPa 0,0 l/m 0 min 0 min 0 W/m 11,3 km/h (2 Bft) 100,00 %
04.08.2018 22:46 23,0 C 18,9 C 18,9 C 78 % 1018,4 hPa 0,0 l/m 0 min 0 min 0 W/m 9,0 km/h (2 Bft) 100,00 %
04.08.2018 22:48 22,9 C 18,9 C 18,9 C 78 % 1018,5 hPa 0,0 l/m 0 min 0 min 0 W/m 9,0 km/h (2 Bft) 100,00 %
04.08.2018 22:50 22,9 C 18,9 C 18,9 C 78 % 1018,5 hPa 0,0 l/m 0 min 0 min 0 W/m 9,0 km/h (2 Bft) 100,00 %
04.08.2018 22:52 22,8 C 18,9 C 18,9 C 78 % 1018,4 hPa 0,0 l/m 0 min 0 min 0 W/m 9,0 km/h (2 Bft) 100,00 %
04.08.2018 22:54 22,8 C 18,9 C 18,9 C 78 % 1018,4 hPa 0,0 l/m 0 min 0 min 0 W/m 13,5 km/h (3 Bft) 97,83 %
04.08.2018 22:56 22,8 C 18,9 C 18,9 C 78 % 1018,4 hPa 0,0 l/m 0 min 0 min 0 W/m 4,5 km/h (1 Bft) 97,87 %
04.08.2018 22:58 22,7 C 18,9 C 18,9 C 78 % 1018,4 hPa 0,0 l/m 0 min 0 min 0 W/m 15,8 km/h (3 Bft) 100,00 %
04.08.2018 23:00 22,7 C 18,9 C 19,4 C 78 % 1018,4 hPa 0,0 l/m 0 min 0 min 0 W/m 9,0 km/h (2 Bft) 100,00 %
04.08.2018 23:02 22,7 C 18,9 C 19,4 C 78 % 1018,4 hPa 0,0 l/m 0 min 0 min 0 W/m 9,0 km/h (2 Bft) 100,00 %
04.08.2018 23:04 22,7 C 18,9 C 18,9 C 79 % 1018,5 hPa 0,0 l/m 0 min 0 min 0 W/m 11,3 km/h (2 Bft) 100,00 %
04.08.2018 23:06 22,6 C 18,9 C 18,9 C 78 % 1018,5 hPa 0,0 l/m 0 min 0 min 0 W/m 11,3 km/h (2 Bft) 97,87 %
04.08.2018 23:08 22,6 C 19,4 C 19,4 C 78 % 1018,5 hPa 0,0 l/m 0 min 0 min 0 W/m 9,0 km/h (2 Bft) 100,00 %
04.08.2018 23:10 22,6 C 19,4 C 19,4 C 78 % 1018,5 hPa 0,0 l/m 0 min 0 min 0 W/m 13,5 km/h (3 Bft) 100,00 %
04.08.2018 23:12 22,6 C 19,4 C 19,4 C 78 % 1018,5 hPa 0,0 l/m 0 min 0 min 0 W/m 15,8 km/h (3 Bft) 100,00 %
04.08.2018 23:14 22,6 C 18,9 C 19,4 C 79 % 1018,4 hPa 0,0 l/m 0 min 0 min 0 W/m 9,0 km/h (2 Bft) 100,00 %
04.08.2018 23:16 22,5 C 19,4 C 19,4 C 79 % 1018,5 hPa 0,0 l/m 0 min 0 min 0 W/m 11,3 km/h (2 Bft) 100,00 %
04.08.2018 23:18 22,5 C 18,9 C 19,4 C 79 % 1018,4 hPa 0,0 l/m 0 min 0 min 0 W/m 9,0 km/h (2 Bft) 100,00 %
04.08.2018 23:20 22,5 C 18,9 C 19,4 C 79 % 1018,4 hPa 0,0 l/m 0 min 0 min 0 W/m 6,8 km/h (2 Bft) 100,00 %
04.08.2018 23:22 22,5 C 19,4 C 19,4 C 79 % 1018,5 hPa 0,0 l/m 0 min 0 min 0 W/m 6,8 km/h (2 Bft) 100,00 %
04.08.2018 23:24 22,4 C 19,4 C 19,4 C 79 % 1018,6 hPa 0,0 l/m 0 min 0 min 0 W/m 4,5 km/h (1 Bft) 100,00 %
04.08.2018 23:26 22,4 C 18,9 C 19,4 C 79 % 1018,5 hPa 0,0 l/m 0 min 0 min 0 W/m 15,8 km/h (3 Bft) 98,39 %
04.08.2018 23:28 22,4 C 18,9 C 19,4 C 79 % 1018,5 hPa 0,0 l/m 0 min 0 min 0 W/m 9,0 km/h (2 Bft) 97,87 %
04.08.2018 23:30 22,4 C 18,9 C 19,4 C 79 % 1018,5 hPa 0,0 l/m 0 min 0 min 0 W/m 9,0 km/h (2 Bft) 93,62 %
04.08.2018 23:32 22,4 C 18,9 C 20,0 C 79 % 1018,5 hPa 0,0 l/m 0 min 0 min 0 W/m 6,8 km/h (2 Bft) 95,65 %
04.08.2018 23:34 22,4 C 18,9 C 20,6 C 79 % 1018,4 hPa 0,0 l/m 0 min 0 min 0 W/m 11,3 km/h (2 Bft) 97,87 %
04.08.2018 23:36 22,3 C 18,9 C 20,6 C 79 % 1018,5 hPa 0,0 l/m 0 min 0 min 0 W/m 9,0 km/h (2 Bft) 95,74 %
04.08.2018 23:38 22,3 C 18,9 C 20,6 C 79 % 1018,6 hPa 0,0 l/m 0 min 0 min 0 W/m 13,5 km/h (3 Bft) 95,74 %
04.08.2018 23:40 22,3 C 18,9 C 21,1 C 79 % 1018,6 hPa 0,0 l/m 0 min 0 min 0 W/m 6,8 km/h (2 Bft) 97,87 %
04.08.2018 23:42 22,3 C 18,9 C 21,1 C 79 % 1018,6 hPa 0,0 l/m 0 min 0 min 0 W/m 6,8 km/h (2 Bft) 95,65 %
04.08.2018 23:44 22,3 C 18,9 C 21,1 C 79 % 1018,6 hPa 0,0 l/m 0 min 0 min 0 W/m 9,0 km/h (2 Bft) 97,87 %
04.08.2018 23:46 22,2 C 18,9 C 21,1 C 80 % 1018,6 hPa 0,0 l/m 0 min 0 min 0 W/m 4,5 km/h (1 Bft) 97,87 %
04.08.2018 23:48 22,2 C 18,9 C 21,1 C 80 % 1018,6 hPa 0,0 l/m 0 min 0 min 0 W/m 6,8 km/h (2 Bft) 93,62 %
04.08.2018 23:50 22,2 C 18,9 C 21,1 C 80 % 1018,6 hPa 0,0 l/m 0 min 0 min 0 W/m 18,0 km/h (3 Bft) 95,74 %
04.08.2018 23:52 22,2 C 19,4 C 21,1 C 80 % 1018,6 hPa 0,0 l/m 0 min 0 min 0 W/m 6,8 km/h (2 Bft) 97,87 %
04.08.2018 23:54 22,2 C 19,4 C 21,1 C 80 % 1018,6 hPa 0,0 l/m 0 min 0 min 0 W/m 9,0 km/h (2 Bft) 95,65 %
04.08.2018 23:56 22,2 C 19,4 C 21,1 C 80 % 1018,6 hPa 0,0 l/m 0 min 0 min 0 W/m 2,3 km/h (1 Bft) 91,49 %
04.08.2018 23:58 22,2 C 19,4 C 21,1 C 80 % 1018,6 hPa 0,0 l/m 0 min 0 min 0 W/m 2,3 km/h (1 Bft) 95,74 %
_ Min-Zeit 06:40 21:40 21:26 13:32 04:56 - - - - 00:54 18:08
Minimum _ 20,8 C 18,3 C 18,3 C 42 % 1015,6 hPa - - - - 0,0 km/h (0 Bft) 91,49 %
_ Max-Zeit 16:26 13:02 16:22 23:46 23:24 22:28 11:08 00:00 14:08 19:10 00:32
Maximum _ 32,6 C 40,6 C 30,6 C 80 % 1018,6 hPa 0,8 l/m 4 min 0 min 867 W/m 31,5 km/h
NW (5 Bft)
100,00 %
Durchschnitt _ 26,7 C 26,6 C 24,4 C 60 % 1016,7 hPa #1,0 l/m #10:00 h #0 min. 412 W/m 8,6 km/h (2 Bft) 97,59 %
© 2018 W. Hausmann